<?xml version="1.0" encoding="UTF-8"?>
<gpx version="1.1" creator="2bulu-scraper" xmlns="http://www.topografix.com/GPX/1/1">
  <metadata><name>乐山徒步路线 井研 川主洞环线 川主洞到胜泉乡</name><desc>source: 2bulu.com trackId=84392735; exported 2026-09-01T17:22:29.953Z</desc>
    <bounds minlat="29.4942621" minlon="104.0929501" maxlat="29.5134333" maxlon="104.1123686"/>
    <link href="https://www.2bulu.com/track/t-Ujf7V6T1ok3p%252FR2KBg5Tzw%253D%253D.htm"><text>2bulu 源页面</text></link>
  </metadata>
  <wpt lat="29.5125553" lon="104.1089182"><ele>377</ele><name>
        </name></wpt>
  <wpt lat="29.51228" lon="104.1089771"><ele>366</ele><name>
        </name></wpt>
  <wpt lat="29.5104139" lon="104.1092693"><ele>362</ele><name>
        </name></wpt>
  <wpt lat="29.5080306" lon="104.1034947"><ele>332</ele><name>
        </name></wpt>
  <wpt lat="29.5069285" lon="104.103673"><ele>353</ele><name>
        </name></wpt>
  <wpt lat="29.5063064" lon="104.1021493"><ele>357</ele><name>
        </name></wpt>
  <wpt lat="29.5051135" lon="104.0984294"><ele>332</ele><name>
        </name></wpt>
  <wpt lat="29.5053114" lon="104.0975798"><ele>336</ele><name>
        </name></wpt>
  <wpt lat="29.5075711" lon="104.0967633"><ele>336</ele><name>
        </name></wpt>
  <wpt lat="29.5058836" lon="104.0955646"><ele>319</ele><name>
        </name></wpt>
  <wpt lat="29.5057046" lon="104.0954926"><ele>321</ele><name>
        </name></wpt>
  <wpt lat="29.5056749" lon="104.0954007"><ele>326</ele><name>
        </name></wpt>
  <wpt lat="29.5056607" lon="104.0952679"><ele>328</ele><name>
        </name></wpt>
  <wpt lat="29.5044075" lon="104.0970529"><ele>343</ele><name>
        </name></wpt>
  <wpt lat="29.5019718" lon="104.0955674"><ele>324</ele><name>
        </name></wpt>
  <wpt lat="29.5022838" lon="104.0947703"><ele>339</ele><name>
        </name></wpt>
  <wpt lat="29.5022838" lon="104.0947703"><ele>339</ele><name>
        </name></wpt>
  <wpt lat="29.5004839" lon="104.0950824"><ele>330</ele><name>
        </name></wpt>
  <wpt lat="29.4999685" lon="104.0965717"><ele>326</ele><name>
        </name></wpt>
  <wpt lat="29.496093" lon="104.0970669"><ele>333</ele><name>
        </name></wpt>
  <wpt lat="29.4972262" lon="104.0989141"><ele>379</ele><name>
        </name></wpt>
  <wpt lat="29.4976088" lon="104.0999914"><ele>376</ele><name>
        </name></wpt>
  <wpt lat="29.497753" lon="104.1002503"><ele>379</ele><name>瀑布
        </name></wpt>
  <wpt lat="29.4987091" lon="104.1018142"><ele>388</ele><name>
        </name></wpt>
  <wpt lat="29.4984049" lon="104.1055444"><ele>406</ele><name>
        </name></wpt>
  <wpt lat="29.4995227" lon="104.1074203"><ele>409</ele><name>胜泉初中
        </name></wpt>
  <wpt lat="29.512622" lon="104.1102607"><ele>394</ele><name>
        </name></wpt>
  <trk><name>乐山徒步路线 井研 川主洞环线 川主洞到胜泉乡</name>
      <trkseg>
        <trkpt lat="29.5130481" lon="104.1096047"><ele>379.74</ele><time>2026-05-16T19:00:21.000Z</time></trkpt>
        <trkpt lat="29.5131203" lon="104.109547"><ele>379.74</ele><time>2026-05-16T19:00:33.000Z</time></trkpt>
        <trkpt lat="29.5131724" lon="104.1094451"><ele>380.45</ele><time>2026-05-16T19:00:51.000Z</time></trkpt>
        <trkpt lat="29.513217" lon="104.1093419"><ele>381.87</ele><time>2026-05-16T19:01:01.000Z</time></trkpt>
        <trkpt lat="29.5132687" lon="104.1092484"><ele>382.7</ele><time>2026-05-16T19:01:11.000Z</time></trkpt>
        <trkpt lat="29.513333" lon="104.1091657"><ele>383.14</ele><time>2026-05-16T19:01:19.000Z</time></trkpt>
        <trkpt lat="29.5133686" lon="104.109065"><ele>382.23</ele><time>2026-05-16T19:01:33.000Z</time></trkpt>
        <trkpt lat="29.5134148" lon="104.1089749"><ele>382.27</ele><time>2026-05-16T19:01:41.000Z</time></trkpt>
        <trkpt lat="29.5134333" lon="104.1089496"><ele>382.9</ele><time>2026-05-16T19:01:45.000Z</time></trkpt>
        <trkpt lat="29.5133653" lon="104.108994"><ele>382.79</ele><time>2026-05-16T19:02:23.000Z</time></trkpt>
        <trkpt lat="29.5132788" lon="104.10907"><ele>382.74</ele><time>2026-05-16T19:02:35.000Z</time></trkpt>
        <trkpt lat="29.5132022" lon="104.1091685"><ele>383.11</ele><time>2026-05-16T19:02:47.000Z</time></trkpt>
        <trkpt lat="29.5131373" lon="104.1092746"><ele>382.95</ele><time>2026-05-16T19:02:57.000Z</time></trkpt>
        <trkpt lat="29.5130681" lon="104.1093694"><ele>383</ele><time>2026-05-16T19:03:07.000Z</time></trkpt>
        <trkpt lat="29.5130242" lon="104.1094699"><ele>383.59</ele><time>2026-05-16T19:03:17.000Z</time></trkpt>
        <trkpt lat="29.513016" lon="104.1095797"><ele>383.75</ele><time>2026-05-16T19:03:31.000Z</time></trkpt>
        <trkpt lat="29.5129751" lon="104.1095394"><ele>383.47</ele><time>2026-05-16T19:03:43.000Z</time></trkpt>
        <trkpt lat="29.5129292" lon="104.1094404"><ele>382.2</ele><time>2026-05-16T19:03:53.000Z</time></trkpt>
        <trkpt lat="29.512884" lon="104.1093323"><ele>380.6</ele><time>2026-05-16T19:04:03.000Z</time></trkpt>
        <trkpt lat="29.5128452" lon="104.1092197"><ele>378.37</ele><time>2026-05-16T19:04:13.000Z</time></trkpt>
        <trkpt lat="29.5128326" lon="104.1091087"><ele>375.82</ele><time>2026-05-16T19:04:23.000Z</time></trkpt>
        <trkpt lat="29.5128062" lon="104.1089968"><ele>374.18</ele><time>2026-05-16T19:04:35.000Z</time></trkpt>
        <trkpt lat="29.5127226" lon="104.1089328"><ele>375.08</ele><time>2026-05-16T19:05:15.000Z</time></trkpt>
        <trkpt lat="29.5126221" lon="104.1089117"><ele>378.17</ele><time>2026-05-16T19:05:27.000Z</time></trkpt>
        <trkpt lat="29.5125553" lon="104.1089182"><ele>377.74</ele><time>2026-05-16T19:05:35.000Z</time></trkpt>
        <trkpt lat="29.512471" lon="104.1089319"><ele>377.56</ele><time>2026-05-16T19:06:06.000Z</time></trkpt>
        <trkpt lat="29.5123938" lon="104.1089936"><ele>375.04</ele><time>2026-05-16T19:06:16.000Z</time></trkpt>
        <trkpt lat="29.512355" lon="104.1089914"><ele>372.82</ele><time>2026-05-16T19:06:34.000Z</time></trkpt>
        <trkpt lat="29.51228" lon="104.1089771"><ele>370.07</ele><time>2026-05-16T19:06:49.000Z</time></trkpt>
        <trkpt lat="29.512214" lon="104.1090208"><ele>368.38</ele><time>2026-05-16T19:07:05.000Z</time></trkpt>
        <trkpt lat="29.5121407" lon="104.1090944"><ele>366.06</ele><time>2026-05-16T19:07:33.000Z</time></trkpt>
        <trkpt lat="29.512055" lon="104.1091541"><ele>366.36</ele><time>2026-05-16T19:07:45.000Z</time></trkpt>
        <trkpt lat="29.5119646" lon="104.109204"><ele>365.21</ele><time>2026-05-16T19:08:03.000Z</time></trkpt>
        <trkpt lat="29.5118797" lon="104.1092654"><ele>366.76</ele><time>2026-05-16T19:08:19.000Z</time></trkpt>
        <trkpt lat="29.5118212" lon="104.1093533"><ele>367.72</ele><time>2026-05-16T19:08:55.000Z</time></trkpt>
        <trkpt lat="29.5117306" lon="104.1093705"><ele>364.74</ele><time>2026-05-16T19:09:03.000Z</time></trkpt>
        <trkpt lat="29.5116352" lon="104.1093754"><ele>364.66</ele><time>2026-05-16T19:09:13.000Z</time></trkpt>
        <trkpt lat="29.5116188" lon="104.1093962"><ele>365.13</ele><time>2026-05-16T19:09:26.000Z</time></trkpt>
        <trkpt lat="29.5115436" lon="104.1093615"><ele>363.82</ele><time>2026-05-16T19:10:34.000Z</time></trkpt>
        <trkpt lat="29.5114465" lon="104.1093194"><ele>362.62</ele><time>2026-05-16T19:10:46.000Z</time></trkpt>
        <trkpt lat="29.5113378" lon="104.1093117"><ele>360.77</ele><time>2026-05-16T19:10:58.000Z</time></trkpt>
        <trkpt lat="29.5112315" lon="104.109325"><ele>361.5</ele><time>2026-05-16T19:11:08.000Z</time></trkpt>
        <trkpt lat="29.5111998" lon="104.1094123"><ele>362.92</ele><time>2026-05-16T19:11:18.000Z</time></trkpt>
        <trkpt lat="29.5111434" lon="104.1094929"><ele>364.2</ele><time>2026-05-16T19:11:32.000Z</time></trkpt>
        <trkpt lat="29.5110654" lon="104.1095615"><ele>367.27</ele><time>2026-05-16T19:11:44.000Z</time></trkpt>
        <trkpt lat="29.5109744" lon="104.1095952"><ele>369.72</ele><time>2026-05-16T19:11:56.000Z</time></trkpt>
        <trkpt lat="29.5108734" lon="104.1095901"><ele>369.97</ele><time>2026-05-16T19:12:31.000Z</time></trkpt>
        <trkpt lat="29.5107799" lon="104.10955"><ele>365.28</ele><time>2026-05-16T19:12:43.000Z</time></trkpt>
        <trkpt lat="29.5106956" lon="104.1095707"><ele>361.68</ele><time>2026-05-16T19:15:13.000Z</time></trkpt>
        <trkpt lat="29.5106344" lon="104.1094913"><ele>360.96</ele><time>2026-05-16T19:15:59.000Z</time></trkpt>
        <trkpt lat="29.5105507" lon="104.109433"><ele>360.49</ele><time>2026-05-16T19:16:11.000Z</time></trkpt>
        <trkpt lat="29.510464" lon="104.1093871"><ele>360.19</ele><time>2026-05-16T19:16:25.000Z</time></trkpt>
        <trkpt lat="29.5104215" lon="104.1092992"><ele>360.39</ele><time>2026-05-16T19:16:37.000Z</time></trkpt>
        <trkpt lat="29.5104139" lon="104.1092693"><ele>361.07</ele><time>2026-05-16T19:16:39.000Z</time></trkpt>
        <trkpt lat="29.5100783" lon="104.1090937"><ele>361.6</ele><time>2026-05-16T19:20:27.000Z</time></trkpt>
        <trkpt lat="29.5100058" lon="104.1091683"><ele>359.22</ele><time>2026-05-16T19:20:36.000Z</time></trkpt>
        <trkpt lat="29.5099076" lon="104.1091532"><ele>360.49</ele><time>2026-05-16T19:20:50.000Z</time></trkpt>
        <trkpt lat="29.5098087" lon="104.1091527"><ele>361.81</ele><time>2026-05-16T19:21:02.000Z</time></trkpt>
        <trkpt lat="29.5097369" lon="104.1092072"><ele>360.69</ele><time>2026-05-16T19:21:10.000Z</time></trkpt>
        <trkpt lat="29.5097085" lon="104.1092523"><ele>360.35</ele><time>2026-05-16T19:21:22.000Z</time></trkpt>
        <trkpt lat="29.5096436" lon="104.1092393"><ele>358.74</ele><time>2026-05-16T19:21:55.000Z</time></trkpt>
        <trkpt lat="29.5095613" lon="104.1092584"><ele>358.41</ele><time>2026-05-16T19:22:07.000Z</time></trkpt>
        <trkpt lat="29.5094789" lon="104.1093056"><ele>355.91</ele><time>2026-05-16T19:22:21.000Z</time></trkpt>
        <trkpt lat="29.5094047" lon="104.1093795"><ele>356.32</ele><time>2026-05-16T19:22:39.000Z</time></trkpt>
        <trkpt lat="29.5093709" lon="104.109486"><ele>357.03</ele><time>2026-05-16T19:22:58.000Z</time></trkpt>
        <trkpt lat="29.5093231" lon="104.1095826"><ele>358.81</ele><time>2026-05-16T19:23:10.000Z</time></trkpt>
        <trkpt lat="29.5092595" lon="104.1096711"><ele>361.06</ele><time>2026-05-16T19:23:24.000Z</time></trkpt>
        <trkpt lat="29.5091787" lon="104.1096644"><ele>362.84</ele><time>2026-05-16T19:23:48.000Z</time></trkpt>
        <trkpt lat="29.5090858" lon="104.1096408"><ele>364.18</ele><time>2026-05-16T19:24:04.000Z</time></trkpt>
        <trkpt lat="29.5089972" lon="104.1095857"><ele>364.24</ele><time>2026-05-16T19:24:22.000Z</time></trkpt>
        <trkpt lat="29.5089463" lon="104.1094923"><ele>362.38</ele><time>2026-05-16T19:24:34.000Z</time></trkpt>
        <trkpt lat="29.5089506" lon="104.1093828"><ele>361.41</ele><time>2026-05-16T19:25:28.000Z</time></trkpt>
        <trkpt lat="29.5089242" lon="104.1092692"><ele>360.48</ele><time>2026-05-16T19:25:48.000Z</time></trkpt>
        <trkpt lat="29.5088928" lon="104.1091523"><ele>360.7</ele><time>2026-05-16T19:26:02.000Z</time></trkpt>
        <trkpt lat="29.5088946" lon="104.1090403"><ele>359.67</ele><time>2026-05-16T19:26:24.000Z</time></trkpt>
        <trkpt lat="29.5089214" lon="104.108931"><ele>357.92</ele><time>2026-05-16T19:26:36.000Z</time></trkpt>
        <trkpt lat="29.5089797" lon="104.1088407"><ele>357.23</ele><time>2026-05-16T19:26:50.000Z</time></trkpt>
        <trkpt lat="29.5090228" lon="104.1087361"><ele>356.33</ele><time>2026-05-16T19:27:06.000Z</time></trkpt>
        <trkpt lat="29.5090673" lon="104.1086318"><ele>355.52</ele><time>2026-05-16T19:27:20.000Z</time></trkpt>
        <trkpt lat="29.5091094" lon="104.1085321"><ele>356.06</ele><time>2026-05-16T19:27:34.000Z</time></trkpt>
        <trkpt lat="29.5091394" lon="104.1084208"><ele>356.38</ele><time>2026-05-16T19:27:48.000Z</time></trkpt>
        <trkpt lat="29.5091675" lon="104.1083108"><ele>356.38</ele><time>2026-05-16T19:28:00.000Z</time></trkpt>
        <trkpt lat="29.5092006" lon="104.1082062"><ele>355.94</ele><time>2026-05-16T19:28:14.000Z</time></trkpt>
        <trkpt lat="29.5092356" lon="104.1081081"><ele>354.66</ele><time>2026-05-16T19:28:28.000Z</time></trkpt>
        <trkpt lat="29.5092508" lon="104.1080044"><ele>352.92</ele><time>2026-05-16T19:28:38.000Z</time></trkpt>
        <trkpt lat="29.5092612" lon="104.1078938"><ele>351.35</ele><time>2026-05-16T19:28:56.000Z</time></trkpt>
        <trkpt lat="29.5092941" lon="104.1077861"><ele>350.75</ele><time>2026-05-16T19:29:12.000Z</time></trkpt>
        <trkpt lat="29.5093489" lon="104.1076926"><ele>351.89</ele><time>2026-05-16T19:29:30.000Z</time></trkpt>
        <trkpt lat="29.5093769" lon="104.1075872"><ele>349.89</ele><time>2026-05-16T19:29:42.000Z</time></trkpt>
        <trkpt lat="29.5093797" lon="104.1074773"><ele>348.99</ele><time>2026-05-16T19:29:56.000Z</time></trkpt>
        <trkpt lat="29.5093659" lon="104.1073891"><ele>347.56</ele><time>2026-05-16T19:30:08.000Z</time></trkpt>
        <trkpt lat="29.5094119" lon="104.107312"><ele>347.33</ele><time>2026-05-16T19:30:41.000Z</time></trkpt>
        <trkpt lat="29.5094116" lon="104.1072075"><ele>347.04</ele><time>2026-05-16T19:30:56.000Z</time></trkpt>
        <trkpt lat="29.5093991" lon="104.1070987"><ele>344.49</ele><time>2026-05-16T19:31:08.000Z</time></trkpt>
        <trkpt lat="29.509443" lon="104.1070168"><ele>345.66</ele><time>2026-05-16T19:31:16.000Z</time></trkpt>
        <trkpt lat="29.5094562" lon="104.1069147"><ele>346.1</ele><time>2026-05-16T19:31:36.000Z</time></trkpt>
        <trkpt lat="29.5094773" lon="104.1068064"><ele>347.65</ele><time>2026-05-16T19:31:50.000Z</time></trkpt>
        <trkpt lat="29.509506" lon="104.1066947"><ele>346.08</ele><time>2026-05-16T19:32:43.000Z</time></trkpt>
        <trkpt lat="29.5095416" lon="104.1065888"><ele>342.05</ele><time>2026-05-16T19:32:47.000Z</time></trkpt>
        <trkpt lat="29.5095479" lon="104.1064838"><ele>338.72</ele><time>2026-05-16T19:32:51.000Z</time></trkpt>
        <trkpt lat="29.5095525" lon="104.1063776"><ele>338.2</ele><time>2026-05-16T19:32:57.000Z</time></trkpt>
        <trkpt lat="29.5095268" lon="104.1063139"><ele>340.84</ele><time>2026-05-16T19:33:07.000Z</time></trkpt>
        <trkpt lat="29.5095426" lon="104.106225"><ele>343.22</ele><time>2026-05-16T19:33:45.000Z</time></trkpt>
        <trkpt lat="29.5095964" lon="104.1061468"><ele>342.17</ele><time>2026-05-16T19:34:09.000Z</time></trkpt>
        <trkpt lat="29.5096587" lon="104.1060673"><ele>340.98</ele><time>2026-05-16T19:34:17.000Z</time></trkpt>
        <trkpt lat="29.5096189" lon="104.1052991"><ele>338.81</ele><time>2026-05-16T19:35:40.000Z</time></trkpt>
        <trkpt lat="29.5096458" lon="104.105407"><ele>338.21</ele><time>2026-05-16T19:35:44.000Z</time></trkpt>
        <trkpt lat="29.5092487" lon="104.1039086"><ele>350.91</ele><time>2026-05-16T19:39:17.000Z</time></trkpt>
        <trkpt lat="29.5093516" lon="104.1038854"><ele>350.57</ele><time>2026-05-16T19:39:22.000Z</time></trkpt>
        <trkpt lat="29.5093516" lon="104.1038854"><ele>350.57</ele><time>2026-05-16T19:39:22.000Z</time></trkpt>
        <trkpt lat="29.5093129" lon="104.1034835"><ele>377.02</ele><time>2026-05-16T19:42:17.000Z</time></trkpt>
        <trkpt lat="29.5093129" lon="104.1034835"><ele>377.02</ele><time>2026-05-16T19:42:19.000Z</time></trkpt>
        <trkpt lat="29.5093017" lon="104.103508"><ele>377.02</ele><time>2026-05-16T19:42:22.000Z</time></trkpt>
        <trkpt lat="29.5093544" lon="104.1034475"><ele>368.19</ele><time>2026-05-16T19:42:30.000Z</time></trkpt>
        <trkpt lat="29.5094069" lon="104.1033548"><ele>358.73</ele><time>2026-05-16T19:42:40.000Z</time></trkpt>
        <trkpt lat="29.5094145" lon="104.1032656"><ele>351.88</ele><time>2026-05-16T19:42:50.000Z</time></trkpt>
        <trkpt lat="29.5094104" lon="104.1031613"><ele>347.15</ele><time>2026-05-16T19:43:06.000Z</time></trkpt>
        <trkpt lat="29.5093734" lon="104.103062"><ele>344.19</ele><time>2026-05-16T19:43:18.000Z</time></trkpt>
        <trkpt lat="29.5093245" lon="104.1029551"><ele>342.54</ele><time>2026-05-16T19:43:32.000Z</time></trkpt>
        <trkpt lat="29.5092424" lon="104.1028762"><ele>342.3</ele><time>2026-05-16T19:43:44.000Z</time></trkpt>
        <trkpt lat="29.5091611" lon="104.1027836"><ele>342.17</ele><time>2026-05-16T19:43:54.000Z</time></trkpt>
        <trkpt lat="29.5090658" lon="104.1027387"><ele>341.81</ele><time>2026-05-16T19:44:06.000Z</time></trkpt>
        <trkpt lat="29.5089732" lon="104.1027027"><ele>342.06</ele><time>2026-05-16T19:44:16.000Z</time></trkpt>
        <trkpt lat="29.5088789" lon="104.1026845"><ele>342.34</ele><time>2026-05-16T19:44:26.000Z</time></trkpt>
        <trkpt lat="29.5088399" lon="104.1026683"><ele>343.69</ele><time>2026-05-16T19:44:30.000Z</time></trkpt>
        <trkpt lat="29.5087623" lon="104.1026826"><ele>345.16</ele><time>2026-05-16T19:44:40.000Z</time></trkpt>
        <trkpt lat="29.5086664" lon="104.1027224"><ele>349.21</ele><time>2026-05-16T19:44:50.000Z</time></trkpt>
        <trkpt lat="29.5085646" lon="104.1027768"><ele>352.22</ele><time>2026-05-16T19:45:04.000Z</time></trkpt>
        <trkpt lat="29.5084999" lon="104.1028743"><ele>353.59</ele><time>2026-05-16T19:45:16.000Z</time></trkpt>
        <trkpt lat="29.508435" lon="104.1029619"><ele>351.66</ele><time>2026-05-16T19:45:24.000Z</time></trkpt>
        <trkpt lat="29.5083714" lon="104.1030621"><ele>354.52</ele><time>2026-05-16T19:45:38.000Z</time></trkpt>
        <trkpt lat="29.5083112" lon="104.1031538"><ele>357.44</ele><time>2026-05-16T19:45:46.000Z</time></trkpt>
        <trkpt lat="29.5082511" lon="104.1032432"><ele>360.45</ele><time>2026-05-16T19:45:56.000Z</time></trkpt>
        <trkpt lat="29.5082033" lon="104.103342"><ele>363.56</ele><time>2026-05-16T19:46:10.000Z</time></trkpt>
        <trkpt lat="29.508117" lon="104.1034401"><ele>363.9</ele><time>2026-05-16T19:47:21.000Z</time></trkpt>
        <trkpt lat="29.5080306" lon="104.1034947"><ele>349.02</ele><time>2026-05-16T19:47:32.000Z</time></trkpt>
        <trkpt lat="29.5079364" lon="104.1035188"><ele>341.54</ele><time>2026-05-16T19:47:44.000Z</time></trkpt>
        <trkpt lat="29.5078238" lon="104.1035301"><ele>341.95</ele><time>2026-05-16T19:47:52.000Z</time></trkpt>
        <trkpt lat="29.5077225" lon="104.1035349"><ele>345.64</ele><time>2026-05-16T19:48:00.000Z</time></trkpt>
        <trkpt lat="29.5076395" lon="104.1035755"><ele>346.11</ele><time>2026-05-16T19:48:10.000Z</time></trkpt>
        <trkpt lat="29.5075542" lon="104.1036222"><ele>346.87</ele><time>2026-05-16T19:48:20.000Z</time></trkpt>
        <trkpt lat="29.5074758" lon="104.1036807"><ele>347.57</ele><time>2026-05-16T19:48:40.000Z</time></trkpt>
        <trkpt lat="29.5073816" lon="104.103677"><ele>348.07</ele><time>2026-05-16T19:49:06.000Z</time></trkpt>
        <trkpt lat="29.507286" lon="104.1036481"><ele>351.45</ele><time>2026-05-16T19:49:20.000Z</time></trkpt>
        <trkpt lat="29.5071884" lon="104.103593"><ele>355.08</ele><time>2026-05-16T19:49:30.000Z</time></trkpt>
        <trkpt lat="29.5070963" lon="104.1035931"><ele>356.64</ele><time>2026-05-16T19:49:40.000Z</time></trkpt>
        <trkpt lat="29.5070063" lon="104.1036156"><ele>355.73</ele><time>2026-05-16T19:49:54.000Z</time></trkpt>
        <trkpt lat="29.5069285" lon="104.103673"><ele>356.13</ele><time>2026-05-16T19:50:17.000Z</time></trkpt>
        <trkpt lat="29.5069342" lon="104.1035828"><ele>354.95</ele><time>2026-05-16T19:51:21.000Z</time></trkpt>
        <trkpt lat="29.5068897" lon="104.1034635"><ele>353.66</ele><time>2026-05-16T19:51:39.000Z</time></trkpt>
        <trkpt lat="29.5068492" lon="104.1033627"><ele>352.59</ele><time>2026-05-16T19:51:53.000Z</time></trkpt>
        <trkpt lat="29.506829" lon="104.1032599"><ele>353.11</ele><time>2026-05-16T19:52:03.000Z</time></trkpt>
        <trkpt lat="29.506804" lon="104.1031598"><ele>352.8</ele><time>2026-05-16T19:52:13.000Z</time></trkpt>
        <trkpt lat="29.5067487" lon="104.1030823"><ele>352.47</ele><time>2026-05-16T19:52:23.000Z</time></trkpt>
        <trkpt lat="29.5066922" lon="104.1029891"><ele>351.89</ele><time>2026-05-16T19:52:35.000Z</time></trkpt>
        <trkpt lat="29.5066364" lon="104.1028948"><ele>351.97</ele><time>2026-05-16T19:52:47.000Z</time></trkpt>
        <trkpt lat="29.5065996" lon="104.1028468"><ele>352.49</ele><time>2026-05-16T19:52:55.000Z</time></trkpt>
        <trkpt lat="29.50662" lon="104.1027681"><ele>353.52</ele><time>2026-05-16T19:53:17.000Z</time></trkpt>
        <trkpt lat="29.5066199" lon="104.102653"><ele>355.19</ele><time>2026-05-16T19:53:31.000Z</time></trkpt>
        <trkpt lat="29.5065852" lon="104.1025424"><ele>356.79</ele><time>2026-05-16T19:53:45.000Z</time></trkpt>
        <trkpt lat="29.5065065" lon="104.1024807"><ele>357.82</ele><time>2026-05-16T19:53:59.000Z</time></trkpt>
        <trkpt lat="29.5064639" lon="104.1024113"><ele>357.72</ele><time>2026-05-16T19:54:11.000Z</time></trkpt>
        <trkpt lat="29.5064336" lon="104.1023159"><ele>359.09</ele><time>2026-05-16T19:54:31.000Z</time></trkpt>
        <trkpt lat="29.5063611" lon="104.1022453"><ele>359.48</ele><time>2026-05-16T19:54:51.000Z</time></trkpt>
        <trkpt lat="29.5063064" lon="104.1021493"><ele>358.57</ele><time>2026-05-16T19:55:19.000Z</time></trkpt>
        <trkpt lat="29.5062469" lon="104.1020558"><ele>357.99</ele><time>2026-05-16T19:55:59.000Z</time></trkpt>
        <trkpt lat="29.5062269" lon="104.1019462"><ele>358.12</ele><time>2026-05-16T19:56:13.000Z</time></trkpt>
        <trkpt lat="29.5062014" lon="104.1018371"><ele>357.77</ele><time>2026-05-16T19:56:27.000Z</time></trkpt>
        <trkpt lat="29.5061478" lon="104.1017385"><ele>358.39</ele><time>2026-05-16T19:56:39.000Z</time></trkpt>
        <trkpt lat="29.5061317" lon="104.1017087"><ele>359.28</ele><time>2026-05-16T19:56:45.000Z</time></trkpt>
        <trkpt lat="29.5060731" lon="104.101665"><ele>360.53</ele><time>2026-05-16T19:57:08.000Z</time></trkpt>
        <trkpt lat="29.5060353" lon="104.1015622"><ele>359.35</ele><time>2026-05-16T19:57:22.000Z</time></trkpt>
        <trkpt lat="29.5060325" lon="104.1014418"><ele>361.04</ele><time>2026-05-16T19:57:30.000Z</time></trkpt>
        <trkpt lat="29.5059706" lon="104.1013667"><ele>363.01</ele><time>2026-05-16T19:58:28.000Z</time></trkpt>
        <trkpt lat="29.5058805" lon="104.1013306"><ele>361.69</ele><time>2026-05-16T19:58:36.000Z</time></trkpt>
        <trkpt lat="29.5057734" lon="104.1013386"><ele>360.72</ele><time>2026-05-16T19:58:48.000Z</time></trkpt>
        <trkpt lat="29.505665" lon="104.1013548"><ele>359.94</ele><time>2026-05-16T19:58:56.000Z</time></trkpt>
        <trkpt lat="29.5056464" lon="104.1013721"><ele>359.82</ele><time>2026-05-16T19:58:58.000Z</time></trkpt>
        <trkpt lat="29.5056964" lon="104.1015177"><ele>359.4</ele><time>2026-05-16T20:01:36.000Z</time></trkpt>
        <trkpt lat="29.5054629" lon="104.1015745"><ele>361.81</ele><time>2026-05-16T20:01:48.000Z</time></trkpt>
        <trkpt lat="29.5054189" lon="104.1014871"><ele>367.8</ele><time>2026-05-16T20:02:26.000Z</time></trkpt>
        <trkpt lat="29.5053442" lon="104.1014056"><ele>366.8</ele><time>2026-05-16T20:02:36.000Z</time></trkpt>
        <trkpt lat="29.5053067" lon="104.1012928"><ele>364.25</ele><time>2026-05-16T20:02:54.000Z</time></trkpt>
        <trkpt lat="29.5052916" lon="104.1011791"><ele>361.84</ele><time>2026-05-16T20:03:18.000Z</time></trkpt>
        <trkpt lat="29.5053372" lon="104.1010765"><ele>354.46</ele><time>2026-05-16T20:03:30.000Z</time></trkpt>
        <trkpt lat="29.5054392" lon="104.1010063"><ele>350.19</ele><time>2026-05-16T20:03:47.000Z</time></trkpt>
        <trkpt lat="29.5055128" lon="104.1009252"><ele>346.71</ele><time>2026-05-16T20:03:57.000Z</time></trkpt>
        <trkpt lat="29.5055344" lon="104.1008217"><ele>345.03</ele><time>2026-05-16T20:04:13.000Z</time></trkpt>
        <trkpt lat="29.504964" lon="104.0991881"><ele>344.4</ele><time>2026-05-16T20:08:45.000Z</time></trkpt>
        <trkpt lat="29.5049826" lon="104.0991289"><ele>331.63</ele><time>2026-05-16T20:08:48.000Z</time></trkpt>
        <trkpt lat="29.5050376" lon="104.0987931"><ele>329.69</ele><time>2026-05-16T20:09:17.000Z</time></trkpt>
        <trkpt lat="29.505044" lon="104.098817"><ele>327.41</ele><time>2026-05-16T20:10:08.000Z</time></trkpt>
        <trkpt lat="29.5050049" lon="104.0987657"><ele>326.03</ele><time>2026-05-16T20:10:14.000Z</time></trkpt>
        <trkpt lat="29.5049983" lon="104.0986791"><ele>330.37</ele><time>2026-05-16T20:10:20.000Z</time></trkpt>
        <trkpt lat="29.505021" lon="104.0985692"><ele>334.23</ele><time>2026-05-16T20:11:02.000Z</time></trkpt>
        <trkpt lat="29.5050683" lon="104.0984621"><ele>339.16</ele><time>2026-05-16T20:12:24.000Z</time></trkpt>
        <trkpt lat="29.5050708" lon="104.0984616"><ele>336.73</ele><time>2026-05-16T20:12:26.000Z</time></trkpt>
        <trkpt lat="29.5051448" lon="104.0984898"><ele>334.23</ele><time>2026-05-16T20:13:08.000Z</time></trkpt>
        <trkpt lat="29.5051135" lon="104.0984294"><ele>333.89</ele><time>2026-05-16T20:14:02.000Z</time></trkpt>
        <trkpt lat="29.5050245" lon="104.0984169"><ele>332.87</ele><time>2026-05-16T20:15:02.000Z</time></trkpt>
        <trkpt lat="29.5049915" lon="104.0983368"><ele>333.42</ele><time>2026-05-16T20:15:20.000Z</time></trkpt>
        <trkpt lat="29.5050148" lon="104.098239"><ele>332.76</ele><time>2026-05-16T20:15:38.000Z</time></trkpt>
        <trkpt lat="29.505039" lon="104.0981089"><ele>336.33</ele><time>2026-05-16T20:16:58.000Z</time></trkpt>
        <trkpt lat="29.5050708" lon="104.0980101"><ele>338.47</ele><time>2026-05-16T20:17:20.000Z</time></trkpt>
        <trkpt lat="29.505067" lon="104.0979081"><ele>341.88</ele><time>2026-05-16T20:17:50.000Z</time></trkpt>
        <trkpt lat="29.5050562" lon="104.0978585"><ele>340.59</ele><time>2026-05-16T20:17:54.000Z</time></trkpt>
        <trkpt lat="29.505024" lon="104.097778"><ele>339.63</ele><time>2026-05-16T20:18:04.000Z</time></trkpt>
        <trkpt lat="29.5050767" lon="104.097732"><ele>336.59</ele><time>2026-05-16T20:18:28.000Z</time></trkpt>
        <trkpt lat="29.5051635" lon="104.0976793"><ele>335.19</ele><time>2026-05-16T20:18:42.000Z</time></trkpt>
        <trkpt lat="29.5052491" lon="104.0976233"><ele>335.11</ele><time>2026-05-16T20:18:48.000Z</time></trkpt>
        <trkpt lat="29.5053114" lon="104.0975798"><ele>335.74</ele><time>2026-05-16T20:18:58.000Z</time></trkpt>
        <trkpt lat="29.505384" lon="104.0976697"><ele>335.77</ele><time>2026-05-16T20:20:04.000Z</time></trkpt>
        <trkpt lat="29.5054698" lon="104.0977211"><ele>336.99</ele><time>2026-05-16T20:20:36.000Z</time></trkpt>
        <trkpt lat="29.5055404" lon="104.0978317"><ele>339.41</ele><time>2026-05-16T20:21:38.000Z</time></trkpt>
        <trkpt lat="29.5055659" lon="104.0977999"><ele>343.67</ele><time>2026-05-16T20:21:46.000Z</time></trkpt>
        <trkpt lat="29.5055848" lon="104.0978891"><ele>346.57</ele><time>2026-05-16T20:22:02.000Z</time></trkpt>
        <trkpt lat="29.5056493" lon="104.0978714"><ele>348.54</ele><time>2026-05-16T20:22:24.000Z</time></trkpt>
        <trkpt lat="29.5057369" lon="104.0978854"><ele>348.83</ele><time>2026-05-16T20:22:50.000Z</time></trkpt>
        <trkpt lat="29.5057743" lon="104.0979036"><ele>348.37</ele><time>2026-05-16T20:22:56.000Z</time></trkpt>
        <trkpt lat="29.5058488" lon="104.0979447"><ele>347.73</ele><time>2026-05-16T20:23:30.000Z</time></trkpt>
        <trkpt lat="29.5060247" lon="104.0980005"><ele>346.17</ele><time>2026-05-16T20:24:55.000Z</time></trkpt>
        <trkpt lat="29.506168" lon="104.0979899"><ele>344.01</ele><time>2026-05-16T20:25:00.000Z</time></trkpt>
        <trkpt lat="29.5062813" lon="104.0980119"><ele>339.77</ele><time>2026-05-16T20:25:10.000Z</time></trkpt>
        <trkpt lat="29.5063164" lon="104.0980228"><ele>337.18</ele><time>2026-05-16T20:25:13.000Z</time></trkpt>
        <trkpt lat="29.5087882" lon="104.0975441"><ele>335.55</ele><time>2026-05-16T20:35:41.000Z</time></trkpt>
        <trkpt lat="29.5087299" lon="104.097409"><ele>328.35</ele><time>2026-05-16T20:36:02.000Z</time></trkpt>
        <trkpt lat="29.5086927" lon="104.0973033"><ele>330.98</ele><time>2026-05-16T20:36:16.000Z</time></trkpt>
        <trkpt lat="29.5086892" lon="104.0972057"><ele>337.19</ele><time>2026-05-16T20:37:22.000Z</time></trkpt>
        <trkpt lat="29.508711" lon="104.0970915"><ele>339.07</ele><time>2026-05-16T20:38:00.000Z</time></trkpt>
        <trkpt lat="29.5087306" lon="104.0969743"><ele>339.64</ele><time>2026-05-16T20:38:14.000Z</time></trkpt>
        <trkpt lat="29.5087668" lon="104.0968736"><ele>337.76</ele><time>2026-05-16T20:38:24.000Z</time></trkpt>
        <trkpt lat="29.5088014" lon="104.0967754"><ele>336.43</ele><time>2026-05-16T20:38:34.000Z</time></trkpt>
        <trkpt lat="29.5088458" lon="104.0966692"><ele>335.82</ele><time>2026-05-16T20:39:00.000Z</time></trkpt>
        <trkpt lat="29.508858" lon="104.0965545"><ele>338.25</ele><time>2026-05-16T20:39:16.000Z</time></trkpt>
        <trkpt lat="29.5088688" lon="104.0964329"><ele>340.25</ele><time>2026-05-16T20:39:28.000Z</time></trkpt>
        <trkpt lat="29.5088815" lon="104.0963109"><ele>341.65</ele><time>2026-05-16T20:39:40.000Z</time></trkpt>
        <trkpt lat="29.5088897" lon="104.096285"><ele>341.34</ele><time>2026-05-16T20:39:44.000Z</time></trkpt>
        <trkpt lat="29.5088594" lon="104.0962078"><ele>339.52</ele><time>2026-05-16T20:40:06.000Z</time></trkpt>
        <trkpt lat="29.5088251" lon="104.0960919"><ele>338.29</ele><time>2026-05-16T20:40:18.000Z</time></trkpt>
        <trkpt lat="29.5087708" lon="104.095989"><ele>336.91</ele><time>2026-05-16T20:40:28.000Z</time></trkpt>
        <trkpt lat="29.5087574" lon="104.0958826"><ele>335.24</ele><time>2026-05-16T20:40:38.000Z</time></trkpt>
        <trkpt lat="29.5087513" lon="104.095834"><ele>335.07</ele><time>2026-05-16T20:40:46.000Z</time></trkpt>
        <trkpt lat="29.5087156" lon="104.0958958"><ele>334.28</ele><time>2026-05-16T20:41:28.000Z</time></trkpt>
        <trkpt lat="29.5086354" lon="104.0959572"><ele>332.48</ele><time>2026-05-16T20:42:00.000Z</time></trkpt>
        <trkpt lat="29.5086068" lon="104.0960613"><ele>332.09</ele><time>2026-05-16T20:42:26.000Z</time></trkpt>
        <trkpt lat="29.5086435" lon="104.0961678"><ele>329.14</ele><time>2026-05-16T20:42:40.000Z</time></trkpt>
        <trkpt lat="29.5086998" lon="104.0962707"><ele>329.17</ele><time>2026-05-16T20:43:00.000Z</time></trkpt>
        <trkpt lat="29.5086618" lon="104.0963619"><ele>327.96</ele><time>2026-05-16T20:43:12.000Z</time></trkpt>
        <trkpt lat="29.5086215" lon="104.0964619"><ele>326.3</ele><time>2026-05-16T20:43:26.000Z</time></trkpt>
        <trkpt lat="29.5085915" lon="104.0965655"><ele>327.19</ele><time>2026-05-16T20:43:36.000Z</time></trkpt>
        <trkpt lat="29.5085453" lon="104.0966722"><ele>329.74</ele><time>2026-05-16T20:43:48.000Z</time></trkpt>
        <trkpt lat="29.5084726" lon="104.0967634"><ele>332.39</ele><time>2026-05-16T20:44:44.000Z</time></trkpt>
        <trkpt lat="29.5084149" lon="104.0968187"><ele>334.17</ele><time>2026-05-16T20:44:57.000Z</time></trkpt>
        <trkpt lat="29.5083292" lon="104.0968158"><ele>334.61</ele><time>2026-05-16T20:45:35.000Z</time></trkpt>
        <trkpt lat="29.5082416" lon="104.0967671"><ele>335.04</ele><time>2026-05-16T20:45:51.000Z</time></trkpt>
        <trkpt lat="29.5081506" lon="104.0967023"><ele>335.69</ele><time>2026-05-16T20:46:11.000Z</time></trkpt>
        <trkpt lat="29.5080578" lon="104.0966745"><ele>334.84</ele><time>2026-05-16T20:46:23.000Z</time></trkpt>
        <trkpt lat="29.508013" lon="104.0965899"><ele>336.43</ele><time>2026-05-16T20:46:39.000Z</time></trkpt>
        <trkpt lat="29.5079295" lon="104.0965867"><ele>337.75</ele><time>2026-05-16T20:46:53.000Z</time></trkpt>
        <trkpt lat="29.507838" lon="104.0966315"><ele>339.79</ele><time>2026-05-16T20:47:05.000Z</time></trkpt>
        <trkpt lat="29.5077424" lon="104.0966801"><ele>341.76</ele><time>2026-05-16T20:47:21.000Z</time></trkpt>
        <trkpt lat="29.5076601" lon="104.0967433"><ele>342.55</ele><time>2026-05-16T20:47:37.000Z</time></trkpt>
        <trkpt lat="29.5075711" lon="104.0967633"><ele>341.33</ele><time>2026-05-16T20:47:51.000Z</time></trkpt>
        <trkpt lat="29.5074775" lon="104.0967013"><ele>339.23</ele><time>2026-05-16T20:49:01.000Z</time></trkpt>
        <trkpt lat="29.5073811" lon="104.0967006"><ele>337.79</ele><time>2026-05-16T20:49:45.000Z</time></trkpt>
        <trkpt lat="29.5072849" lon="104.0967191"><ele>336.99</ele><time>2026-05-16T20:50:01.000Z</time></trkpt>
        <trkpt lat="29.5072105" lon="104.0967865"><ele>336.1</ele><time>2026-05-16T20:50:47.000Z</time></trkpt>
        <trkpt lat="29.5071265" lon="104.0967888"><ele>335.49</ele><time>2026-05-16T20:51:25.000Z</time></trkpt>
        <trkpt lat="29.5070264" lon="104.0968332"><ele>331.01</ele><time>2026-05-16T20:51:35.000Z</time></trkpt>
        <trkpt lat="29.506933" lon="104.0968964"><ele>329.9</ele><time>2026-05-16T20:51:45.000Z</time></trkpt>
        <trkpt lat="29.5068378" lon="104.0968976"><ele>329.9</ele><time>2026-05-16T20:51:53.000Z</time></trkpt>
        <trkpt lat="29.5067945" lon="104.0968076"><ele>328.88</ele><time>2026-05-16T20:52:19.000Z</time></trkpt>
        <trkpt lat="29.5067924" lon="104.0966872"><ele>324.54</ele><time>2026-05-16T20:52:31.000Z</time></trkpt>
        <trkpt lat="29.506733" lon="104.0966111"><ele>322.66</ele><time>2026-05-16T20:52:57.000Z</time></trkpt>
        <trkpt lat="29.5066439" lon="104.0965819"><ele>321.28</ele><time>2026-05-16T20:53:05.000Z</time></trkpt>
        <trkpt lat="29.5065874" lon="104.0965058"><ele>322.81</ele><time>2026-05-16T20:53:21.000Z</time></trkpt>
        <trkpt lat="29.5065073" lon="104.0964764"><ele>323.78</ele><time>2026-05-16T20:54:19.000Z</time></trkpt>
        <trkpt lat="29.5064394" lon="104.0964083"><ele>327.01</ele><time>2026-05-16T20:54:33.000Z</time></trkpt>
        <trkpt lat="29.5063629" lon="104.0963433"><ele>325.15</ele><time>2026-05-16T20:54:47.000Z</time></trkpt>
        <trkpt lat="29.5062945" lon="104.0962651"><ele>324.65</ele><time>2026-05-16T20:55:07.000Z</time></trkpt>
        <trkpt lat="29.5062205" lon="104.0961935"><ele>323.57</ele><time>2026-05-16T20:55:23.000Z</time></trkpt>
        <trkpt lat="29.5061381" lon="104.0961223"><ele>320.77</ele><time>2026-05-16T20:55:37.000Z</time></trkpt>
        <trkpt lat="29.5061022" lon="104.0960194"><ele>319.5</ele><time>2026-05-16T20:55:47.000Z</time></trkpt>
        <trkpt lat="29.5061009" lon="104.0959085"><ele>318.65</ele><time>2026-05-16T20:56:01.000Z</time></trkpt>
        <trkpt lat="29.5061103" lon="104.0957942"><ele>317.48</ele><time>2026-05-16T20:56:19.000Z</time></trkpt>
        <trkpt lat="29.5061003" lon="104.0956836"><ele>316.17</ele><time>2026-05-16T20:56:31.000Z</time></trkpt>
        <trkpt lat="29.5060404" lon="104.0956039"><ele>315.35</ele><time>2026-05-16T20:57:01.000Z</time></trkpt>
        <trkpt lat="29.5059577" lon="104.095637"><ele>315.39</ele><time>2026-05-16T20:57:25.000Z</time></trkpt>
        <trkpt lat="29.5058873" lon="104.095581"><ele>315.13</ele><time>2026-05-16T20:58:25.000Z</time></trkpt>
        <trkpt lat="29.5058836" lon="104.0955646"><ele>316.71</ele><time>2026-05-16T20:58:29.000Z</time></trkpt>
        <trkpt lat="29.5057985" lon="104.0955223"><ele>317.59</ele><time>2026-05-16T20:58:51.000Z</time></trkpt>
        <trkpt lat="29.5057046" lon="104.0954926"><ele>320.62</ele><time>2026-05-16T20:59:05.000Z</time></trkpt>
        <trkpt lat="29.5056749" lon="104.0954007"><ele>320.93</ele><time>2026-05-16T20:59:57.000Z</time></trkpt>
        <trkpt lat="29.5056499" lon="104.0952974"><ele>323.04</ele><time>2026-05-16T21:00:11.000Z</time></trkpt>
        <trkpt lat="29.5056607" lon="104.0952679"><ele>324.69</ele><time>2026-05-16T21:00:13.000Z</time></trkpt>
        <trkpt lat="29.5057341" lon="104.0952162"><ele>326.1</ele><time>2026-05-16T21:00:29.000Z</time></trkpt>
        <trkpt lat="29.5058007" lon="104.0951369"><ele>327.24</ele><time>2026-05-16T21:00:39.000Z</time></trkpt>
        <trkpt lat="29.505866" lon="104.0950521"><ele>328.19</ele><time>2026-05-16T21:00:53.000Z</time></trkpt>
        <trkpt lat="29.5059028" lon="104.0949464"><ele>328.64</ele><time>2026-05-16T21:01:15.000Z</time></trkpt>
        <trkpt lat="29.5059222" lon="104.0948374"><ele>330.16</ele><time>2026-05-16T21:01:27.000Z</time></trkpt>
        <trkpt lat="29.5058889" lon="104.094733"><ele>331.65</ele><time>2026-05-16T21:01:43.000Z</time></trkpt>
        <trkpt lat="29.5058615" lon="104.0946253"><ele>331.41</ele><time>2026-05-16T21:02:01.000Z</time></trkpt>
        <trkpt lat="29.505841" lon="104.0945208"><ele>331.55</ele><time>2026-05-16T21:02:29.000Z</time></trkpt>
        <trkpt lat="29.5058846" lon="104.0944286"><ele>331.3</ele><time>2026-05-16T21:02:45.000Z</time></trkpt>
        <trkpt lat="29.505954" lon="104.0943446"><ele>330.58</ele><time>2026-05-16T21:03:05.000Z</time></trkpt>
        <trkpt lat="29.5059461" lon="104.0942557"><ele>329.87</ele><time>2026-05-16T21:03:33.000Z</time></trkpt>
        <trkpt lat="29.5059434" lon="104.0941461"><ele>328.84</ele><time>2026-05-16T21:04:03.000Z</time></trkpt>
        <trkpt lat="29.5058977" lon="104.0940422"><ele>327.58</ele><time>2026-05-16T21:04:23.000Z</time></trkpt>
        <trkpt lat="29.5058757" lon="104.0939381"><ele>325.26</ele><time>2026-05-16T21:04:37.000Z</time></trkpt>
        <trkpt lat="29.5058866" lon="104.0938321"><ele>325.5</ele><time>2026-05-16T21:04:53.000Z</time></trkpt>
        <trkpt lat="29.5058657" lon="104.0937267"><ele>327.03</ele><time>2026-05-16T21:05:21.000Z</time></trkpt>
        <trkpt lat="29.5058538" lon="104.0936183"><ele>326.12</ele><time>2026-05-16T21:05:41.000Z</time></trkpt>
        <trkpt lat="29.5058177" lon="104.0935208"><ele>326.38</ele><time>2026-05-16T21:05:59.000Z</time></trkpt>
        <trkpt lat="29.5057698" lon="104.0934169"><ele>325.67</ele><time>2026-05-16T21:06:21.000Z</time></trkpt>
        <trkpt lat="29.5057231" lon="104.093322"><ele>325.81</ele><time>2026-05-16T21:06:37.000Z</time></trkpt>
        <trkpt lat="29.505697" lon="104.0932144"><ele>325.68</ele><time>2026-05-16T21:06:57.000Z</time></trkpt>
        <trkpt lat="29.5056487" lon="104.0931256"><ele>325.17</ele><time>2026-05-16T21:07:13.000Z</time></trkpt>
        <trkpt lat="29.5055811" lon="104.0930554"><ele>324.41</ele><time>2026-05-16T21:07:25.000Z</time></trkpt>
        <trkpt lat="29.5054954" lon="104.0930137"><ele>324.34</ele><time>2026-05-16T21:07:41.000Z</time></trkpt>
        <trkpt lat="29.5053776" lon="104.0930359"><ele>323.87</ele><time>2026-05-16T21:08:43.000Z</time></trkpt>
        <trkpt lat="29.5052888" lon="104.0929878"><ele>321.37</ele><time>2026-05-16T21:08:53.000Z</time></trkpt>
        <trkpt lat="29.5051915" lon="104.0929633"><ele>320.26</ele><time>2026-05-16T21:09:13.000Z</time></trkpt>
        <trkpt lat="29.5050937" lon="104.0929565"><ele>319.86</ele><time>2026-05-16T21:09:25.000Z</time></trkpt>
        <trkpt lat="29.5049994" lon="104.0929501"><ele>322.47</ele><time>2026-05-16T21:09:45.000Z</time></trkpt>
        <trkpt lat="29.5049085" lon="104.0929702"><ele>323.25</ele><time>2026-05-16T21:09:57.000Z</time></trkpt>
        <trkpt lat="29.5048321" lon="104.0930309"><ele>323.97</ele><time>2026-05-16T21:10:07.000Z</time></trkpt>
        <trkpt lat="29.5047505" lon="104.0931028"><ele>325.27</ele><time>2026-05-16T21:10:17.000Z</time></trkpt>
        <trkpt lat="29.5047065" lon="104.0932016"><ele>327.05</ele><time>2026-05-16T21:10:27.000Z</time></trkpt>
        <trkpt lat="29.5046758" lon="104.0933075"><ele>326.48</ele><time>2026-05-16T21:10:37.000Z</time></trkpt>
        <trkpt lat="29.5046519" lon="104.0934271"><ele>325.9</ele><time>2026-05-16T21:10:51.000Z</time></trkpt>
        <trkpt lat="29.5046152" lon="104.0935474"><ele>326.04</ele><time>2026-05-16T21:11:01.000Z</time></trkpt>
        <trkpt lat="29.504611" lon="104.0936022"><ele>327.5</ele><time>2026-05-16T21:11:11.000Z</time></trkpt>
        <trkpt lat="29.5045994" lon="104.0936869"><ele>324.13</ele><time>2026-05-16T21:11:37.000Z</time></trkpt>
        <trkpt lat="29.5045887" lon="104.0937949"><ele>324.51</ele><time>2026-05-16T21:11:57.000Z</time></trkpt>
        <trkpt lat="29.504583" lon="104.0939231"><ele>325.01</ele><time>2026-05-16T21:12:59.000Z</time></trkpt>
        <trkpt lat="29.5045797" lon="104.0940291"><ele>324.96</ele><time>2026-05-16T21:13:09.000Z</time></trkpt>
        <trkpt lat="29.504629" lon="104.0941146"><ele>325.48</ele><time>2026-05-16T21:13:21.000Z</time></trkpt>
        <trkpt lat="29.5046632" lon="104.0942198"><ele>326.74</ele><time>2026-05-16T21:13:35.000Z</time></trkpt>
        <trkpt lat="29.5046471" lon="104.0943268"><ele>328.55</ele><time>2026-05-16T21:13:49.000Z</time></trkpt>
        <trkpt lat="29.504645" lon="104.0944324"><ele>329.64</ele><time>2026-05-16T21:14:09.000Z</time></trkpt>
        <trkpt lat="29.5046364" lon="104.0945371"><ele>328.86</ele><time>2026-05-16T21:14:15.000Z</time></trkpt>
        <trkpt lat="29.504648" lon="104.0946533"><ele>330.38</ele><time>2026-05-16T21:14:23.000Z</time></trkpt>
        <trkpt lat="29.5046772" lon="104.0947704"><ele>331.77</ele><time>2026-05-16T21:14:33.000Z</time></trkpt>
        <trkpt lat="29.5047036" lon="104.0948782"><ele>333.32</ele><time>2026-05-16T21:14:41.000Z</time></trkpt>
        <trkpt lat="29.5047181" lon="104.0949983"><ele>336.12</ele><time>2026-05-16T21:14:51.000Z</time></trkpt>
        <trkpt lat="29.5047165" lon="104.0951154"><ele>339.16</ele><time>2026-05-16T21:15:01.000Z</time></trkpt>
        <trkpt lat="29.5046664" lon="104.095207"><ele>341.61</ele><time>2026-05-16T21:15:11.000Z</time></trkpt>
        <trkpt lat="29.5046677" lon="104.095304"><ele>344.29</ele><time>2026-05-16T21:15:21.000Z</time></trkpt>
        <trkpt lat="29.5046438" lon="104.0954155"><ele>347.59</ele><time>2026-05-16T21:15:31.000Z</time></trkpt>
        <trkpt lat="29.5046328" lon="104.0955354"><ele>350.96</ele><time>2026-05-16T21:15:41.000Z</time></trkpt>
        <trkpt lat="29.5046079" lon="104.0956563"><ele>353.94</ele><time>2026-05-16T21:15:53.000Z</time></trkpt>
        <trkpt lat="29.5045779" lon="104.095774"><ele>356.32</ele><time>2026-05-16T21:16:07.000Z</time></trkpt>
        <trkpt lat="29.5045737" lon="104.0958957"><ele>357.36</ele><time>2026-05-16T21:16:17.000Z</time></trkpt>
        <trkpt lat="29.5045706" lon="104.0960202"><ele>357.81</ele><time>2026-05-16T21:16:27.000Z</time></trkpt>
        <trkpt lat="29.5045831" lon="104.0961487"><ele>357.7</ele><time>2026-05-16T21:16:37.000Z</time></trkpt>
        <trkpt lat="29.5045995" lon="104.0962777"><ele>358.75</ele><time>2026-05-16T21:16:47.000Z</time></trkpt>
        <trkpt lat="29.5045964" lon="104.0963921"><ele>358.91</ele><time>2026-05-16T21:16:55.000Z</time></trkpt>
        <trkpt lat="29.5045789" lon="104.0964215"><ele>359.64</ele><time>2026-05-16T21:16:59.000Z</time></trkpt>
        <trkpt lat="29.5045638" lon="104.0965025"><ele>359.15</ele><time>2026-05-16T21:17:09.000Z</time></trkpt>
        <trkpt lat="29.5045591" lon="104.0966211"><ele>358.45</ele><time>2026-05-16T21:17:19.000Z</time></trkpt>
        <trkpt lat="29.5045512" lon="104.0967555"><ele>357.01</ele><time>2026-05-16T21:17:27.000Z</time></trkpt>
        <trkpt lat="29.5045056" lon="104.0968625"><ele>356.45</ele><time>2026-05-16T21:17:37.000Z</time></trkpt>
        <trkpt lat="29.504447" lon="104.0969553"><ele>353.83</ele><time>2026-05-16T21:17:47.000Z</time></trkpt>
        <trkpt lat="29.5044075" lon="104.0970529"><ele>350.39</ele><time>2026-05-16T21:17:59.000Z</time></trkpt>
        <trkpt lat="29.5043512" lon="104.0971457"><ele>347.4</ele><time>2026-05-16T21:18:15.000Z</time></trkpt>
        <trkpt lat="29.5042861" lon="104.0972274"><ele>344.39</ele><time>2026-05-16T21:18:25.000Z</time></trkpt>
        <trkpt lat="29.5042181" lon="104.097323"><ele>342.18</ele><time>2026-05-16T21:18:37.000Z</time></trkpt>
        <trkpt lat="29.5041472" lon="104.0974075"><ele>340.43</ele><time>2026-05-16T21:18:47.000Z</time></trkpt>
        <trkpt lat="29.5041049" lon="104.0975099"><ele>339.38</ele><time>2026-05-16T21:18:57.000Z</time></trkpt>
        <trkpt lat="29.5040713" lon="104.0976183"><ele>339.93</ele><time>2026-05-16T21:19:07.000Z</time></trkpt>
        <trkpt lat="29.5041246" lon="104.0976008"><ele>340.7</ele><time>2026-05-16T21:19:25.000Z</time></trkpt>
        <trkpt lat="29.5041869" lon="104.0975146"><ele>337.17</ele><time>2026-05-16T21:19:33.000Z</time></trkpt>
        <trkpt lat="29.5042015" lon="104.0974842"><ele>337.1</ele><time>2026-05-16T21:19:35.000Z</time></trkpt>
        <trkpt lat="29.5041369" lon="104.0975109"><ele>336.81</ele><time>2026-05-16T21:20:33.000Z</time></trkpt>
        <trkpt lat="29.5040853" lon="104.0976062"><ele>336.33</ele><time>2026-05-16T21:20:45.000Z</time></trkpt>
        <trkpt lat="29.504032" lon="104.0977277"><ele>335.68</ele><time>2026-05-16T21:20:59.000Z</time></trkpt>
        <trkpt lat="29.5039637" lon="104.0978331"><ele>334.86</ele><time>2026-05-16T21:21:09.000Z</time></trkpt>
        <trkpt lat="29.5038745" lon="104.0978607"><ele>332.51</ele><time>2026-05-16T21:21:17.000Z</time></trkpt>
        <trkpt lat="29.5037753" lon="104.0978607"><ele>333.87</ele><time>2026-05-16T21:21:23.000Z</time></trkpt>
        <trkpt lat="29.5036813" lon="104.0978765"><ele>335.28</ele><time>2026-05-16T21:21:33.000Z</time></trkpt>
        <trkpt lat="29.5035852" lon="104.0979024"><ele>334.8</ele><time>2026-05-16T21:21:43.000Z</time></trkpt>
        <trkpt lat="29.503481" lon="104.0979072"><ele>335.02</ele><time>2026-05-16T21:21:55.000Z</time></trkpt>
        <trkpt lat="29.5033829" lon="104.0978884"><ele>337.15</ele><time>2026-05-16T21:22:07.000Z</time></trkpt>
        <trkpt lat="29.5033393" lon="104.0978757"><ele>337.66</ele><time>2026-05-16T21:22:11.000Z</time></trkpt>
        <trkpt lat="29.503279" lon="104.0978179"><ele>338.42</ele><time>2026-05-16T21:22:27.000Z</time></trkpt>
        <trkpt lat="29.5032211" lon="104.0977226"><ele>339.19</ele><time>2026-05-16T21:22:35.000Z</time></trkpt>
        <trkpt lat="29.503184" lon="104.0976647"><ele>340.47</ele><time>2026-05-16T21:22:45.000Z</time></trkpt>
        <trkpt lat="29.5031146" lon="104.0976092"><ele>341.19</ele><time>2026-05-16T21:23:07.000Z</time></trkpt>
        <trkpt lat="29.5030404" lon="104.0975419"><ele>339.65</ele><time>2026-05-16T21:23:19.000Z</time></trkpt>
        <trkpt lat="29.5029821" lon="104.0974545"><ele>337.22</ele><time>2026-05-16T21:23:35.000Z</time></trkpt>
        <trkpt lat="29.5029025" lon="104.0973889"><ele>335.19</ele><time>2026-05-16T21:23:45.000Z</time></trkpt>
        <trkpt lat="29.5028131" lon="104.09734"><ele>334.92</ele><time>2026-05-16T21:23:57.000Z</time></trkpt>
        <trkpt lat="29.5027137" lon="104.0973246"><ele>335.59</ele><time>2026-05-16T21:24:15.000Z</time></trkpt>
        <trkpt lat="29.5026128" lon="104.0973293"><ele>337.05</ele><time>2026-05-16T21:24:33.000Z</time></trkpt>
        <trkpt lat="29.5025142" lon="104.0973589"><ele>337.27</ele><time>2026-05-16T21:24:45.000Z</time></trkpt>
        <trkpt lat="29.5024373" lon="104.0973106"><ele>337.64</ele><time>2026-05-16T21:24:55.000Z</time></trkpt>
        <trkpt lat="29.5023971" lon="104.0972151"><ele>337.6</ele><time>2026-05-16T21:25:01.000Z</time></trkpt>
        <trkpt lat="29.5023405" lon="104.0971206"><ele>336.64</ele><time>2026-05-16T21:25:11.000Z</time></trkpt>
        <trkpt lat="29.5022834" lon="104.0970239"><ele>336.03</ele><time>2026-05-16T21:25:23.000Z</time></trkpt>
        <trkpt lat="29.5022388" lon="104.0969158"><ele>335.63</ele><time>2026-05-16T21:25:37.000Z</time></trkpt>
        <trkpt lat="29.5022183" lon="104.0967976"><ele>334.78</ele><time>2026-05-16T21:25:47.000Z</time></trkpt>
        <trkpt lat="29.5021904" lon="104.0966886"><ele>334.3</ele><time>2026-05-16T21:25:55.000Z</time></trkpt>
        <trkpt lat="29.5021645" lon="104.0965743"><ele>331.69</ele><time>2026-05-16T21:26:07.000Z</time></trkpt>
        <trkpt lat="29.502131" lon="104.0964676"><ele>329.63</ele><time>2026-05-16T21:26:17.000Z</time></trkpt>
        <trkpt lat="29.5021351" lon="104.096359"><ele>328.46</ele><time>2026-05-16T21:26:29.000Z</time></trkpt>
        <trkpt lat="29.5021579" lon="104.0962492"><ele>328.15</ele><time>2026-05-16T21:26:41.000Z</time></trkpt>
        <trkpt lat="29.5021724" lon="104.0961407"><ele>327.59</ele><time>2026-05-16T21:26:51.000Z</time></trkpt>
        <trkpt lat="29.5021532" lon="104.0960352"><ele>326.54</ele><time>2026-05-16T21:27:03.000Z</time></trkpt>
        <trkpt lat="29.5020992" lon="104.0959356"><ele>327.31</ele><time>2026-05-16T21:27:15.000Z</time></trkpt>
        <trkpt lat="29.502042" lon="104.0958422"><ele>327.58</ele><time>2026-05-16T21:27:25.000Z</time></trkpt>
        <trkpt lat="29.5020133" lon="104.0958006"><ele>326.88</ele><time>2026-05-16T21:27:31.000Z</time></trkpt>
        <trkpt lat="29.5019741" lon="104.0957237"><ele>326.88</ele><time>2026-05-16T21:28:27.000Z</time></trkpt>
        <trkpt lat="29.5019564" lon="104.0956662"><ele>326.85</ele><time>2026-05-16T21:28:33.000Z</time></trkpt>
        <trkpt lat="29.5019718" lon="104.0955674"><ele>327.25</ele><time>2026-05-16T21:29:37.000Z</time></trkpt>
        <trkpt lat="29.5019829" lon="104.0954644"><ele>325.96</ele><time>2026-05-16T21:30:23.000Z</time></trkpt>
        <trkpt lat="29.5019653" lon="104.0953627"><ele>324.23</ele><time>2026-05-16T21:30:37.000Z</time></trkpt>
        <trkpt lat="29.5020376" lon="104.0953244"><ele>323.06</ele><time>2026-05-16T21:31:21.000Z</time></trkpt>
        <trkpt lat="29.5020627" lon="104.095268"><ele>320.47</ele><time>2026-05-16T21:31:39.000Z</time></trkpt>
        <trkpt lat="29.5020664" lon="104.0953333"><ele>317.84</ele><time>2026-05-16T21:32:31.000Z</time></trkpt>
        <trkpt lat="29.5021366" lon="104.0953774"><ele>318.35</ele><time>2026-05-16T21:33:07.000Z</time></trkpt>
        <trkpt lat="29.5022273" lon="104.0954072"><ele>319.11</ele><time>2026-05-16T21:33:25.000Z</time></trkpt>
        <trkpt lat="29.5023322" lon="104.0953838"><ele>318.98</ele><time>2026-05-16T21:33:55.000Z</time></trkpt>
        <trkpt lat="29.5023391" lon="104.0952959"><ele>318.69</ele><time>2026-05-16T21:34:09.000Z</time></trkpt>
        <trkpt lat="29.5023691" lon="104.0951931"><ele>321.36</ele><time>2026-05-16T21:34:27.000Z</time></trkpt>
        <trkpt lat="29.5023926" lon="104.0950851"><ele>322.77</ele><time>2026-05-16T21:34:51.000Z</time></trkpt>
        <trkpt lat="29.5023582" lon="104.0949643"><ele>324.25</ele><time>2026-05-16T21:36:13.000Z</time></trkpt>
        <trkpt lat="29.502322" lon="104.0948651"><ele>328.93</ele><time>2026-05-16T21:36:45.000Z</time></trkpt>
        <trkpt lat="29.5022838" lon="104.0947703"><ele>333.02</ele><time>2026-05-16T21:37:01.000Z</time></trkpt>
        <trkpt lat="29.502223" lon="104.0946959"><ele>335.78</ele><time>2026-05-16T21:37:43.000Z</time></trkpt>
        <trkpt lat="29.5021596" lon="104.0946154"><ele>336.46</ele><time>2026-05-16T21:37:53.000Z</time></trkpt>
        <trkpt lat="29.5020942" lon="104.0945329"><ele>336.75</ele><time>2026-05-16T21:38:17.000Z</time></trkpt>
        <trkpt lat="29.5020138" lon="104.0944572"><ele>337.14</ele><time>2026-05-16T21:38:29.000Z</time></trkpt>
        <trkpt lat="29.5019809" lon="104.0943542"><ele>335.95</ele><time>2026-05-16T21:39:01.000Z</time></trkpt>
        <trkpt lat="29.5019435" lon="104.0942466"><ele>334.31</ele><time>2026-05-16T21:39:13.000Z</time></trkpt>
        <trkpt lat="29.5019271" lon="104.0941389"><ele>333.7</ele><time>2026-05-16T21:39:25.000Z</time></trkpt>
        <trkpt lat="29.5019439" lon="104.0940224"><ele>333.93</ele><time>2026-05-16T21:39:37.000Z</time></trkpt>
        <trkpt lat="29.5019459" lon="104.0939143"><ele>333.86</ele><time>2026-05-16T21:39:49.000Z</time></trkpt>
        <trkpt lat="29.5018743" lon="104.0938885"><ele>334.73</ele><time>2026-05-16T21:40:31.000Z</time></trkpt>
        <trkpt lat="29.5017757" lon="104.093901"><ele>337.18</ele><time>2026-05-16T21:40:41.000Z</time></trkpt>
        <trkpt lat="29.5016722" lon="104.0938948"><ele>338.38</ele><time>2026-05-16T21:40:51.000Z</time></trkpt>
        <trkpt lat="29.5015806" lon="104.0939286"><ele>337.93</ele><time>2026-05-16T21:41:01.000Z</time></trkpt>
        <trkpt lat="29.5014952" lon="104.0939063"><ele>335.97</ele><time>2026-05-16T21:41:11.000Z</time></trkpt>
        <trkpt lat="29.5014006" lon="104.0938941"><ele>333.6</ele><time>2026-05-16T21:41:21.000Z</time></trkpt>
        <trkpt lat="29.5013844" lon="104.0938845"><ele>334.22</ele><time>2026-05-16T21:41:23.000Z</time></trkpt>
        <trkpt lat="29.5012972" lon="104.0939191"><ele>334.4</ele><time>2026-05-16T21:41:35.000Z</time></trkpt>
        <trkpt lat="29.5011953" lon="104.0938728"><ele>334.94</ele><time>2026-05-16T21:41:43.000Z</time></trkpt>
        <trkpt lat="29.5011089" lon="104.0938366"><ele>334.64</ele><time>2026-05-16T21:41:59.000Z</time></trkpt>
        <trkpt lat="29.501017" lon="104.0938254"><ele>333.19</ele><time>2026-05-16T21:42:09.000Z</time></trkpt>
        <trkpt lat="29.5009483" lon="104.0938821"><ele>334.03</ele><time>2026-05-16T21:42:25.000Z</time></trkpt>
        <trkpt lat="29.5008657" lon="104.0939298"><ele>333.01</ele><time>2026-05-16T21:42:39.000Z</time></trkpt>
        <trkpt lat="29.5007853" lon="104.0939979"><ele>331.53</ele><time>2026-05-16T21:42:55.000Z</time></trkpt>
        <trkpt lat="29.5007342" lon="104.0940997"><ele>329.04</ele><time>2026-05-16T21:43:05.000Z</time></trkpt>
        <trkpt lat="29.5007174" lon="104.0942673"><ele>326.54</ele><time>2026-05-16T21:43:10.000Z</time></trkpt>
        <trkpt lat="29.5006771" lon="104.0943947"><ele>329.73</ele><time>2026-05-16T21:43:28.000Z</time></trkpt>
        <trkpt lat="29.500636" lon="104.0944993"><ele>332.98</ele><time>2026-05-16T21:43:40.000Z</time></trkpt>
        <trkpt lat="29.5006091" lon="104.0946096"><ele>332.04</ele><time>2026-05-16T21:43:56.000Z</time></trkpt>
        <trkpt lat="29.5005571" lon="104.094697"><ele>328.95</ele><time>2026-05-16T21:44:12.000Z</time></trkpt>
        <trkpt lat="29.5005057" lon="104.0947925"><ele>328.8</ele><time>2026-05-16T21:44:26.000Z</time></trkpt>
        <trkpt lat="29.5004727" lon="104.0949018"><ele>328.85</ele><time>2026-05-16T21:44:38.000Z</time></trkpt>
        <trkpt lat="29.5004804" lon="104.095019"><ele>329.6</ele><time>2026-05-16T21:44:50.000Z</time></trkpt>
        <trkpt lat="29.5004839" lon="104.0950824"><ele>329.79</ele><time>2026-05-16T21:44:56.000Z</time></trkpt>
        <trkpt lat="29.5005178" lon="104.0951741"><ele>330.04</ele><time>2026-05-16T21:45:08.000Z</time></trkpt>
        <trkpt lat="29.5005209" lon="104.0952785"><ele>329.28</ele><time>2026-05-16T21:45:22.000Z</time></trkpt>
        <trkpt lat="29.500515" lon="104.0953877"><ele>329.2</ele><time>2026-05-16T21:45:40.000Z</time></trkpt>
        <trkpt lat="29.5004697" lon="104.0954919"><ele>328.33</ele><time>2026-05-16T21:45:54.000Z</time></trkpt>
        <trkpt lat="29.500437" lon="104.0955963"><ele>328.9</ele><time>2026-05-16T21:46:04.000Z</time></trkpt>
        <trkpt lat="29.5004308" lon="104.0957032"><ele>328.41</ele><time>2026-05-16T21:46:12.000Z</time></trkpt>
        <trkpt lat="29.500408" lon="104.0958044"><ele>327.93</ele><time>2026-05-16T21:46:22.000Z</time></trkpt>
        <trkpt lat="29.5004049" lon="104.095917"><ele>326.79</ele><time>2026-05-16T21:46:32.000Z</time></trkpt>
        <trkpt lat="29.5004021" lon="104.0960318"><ele>327.48</ele><time>2026-05-16T21:46:40.000Z</time></trkpt>
        <trkpt lat="29.5004003" lon="104.096147"><ele>327.82</ele><time>2026-05-16T21:46:50.000Z</time></trkpt>
        <trkpt lat="29.5004172" lon="104.0961725"><ele>328.45</ele><time>2026-05-16T21:46:54.000Z</time></trkpt>
        <trkpt lat="29.5003802" lon="104.0962362"><ele>327.19</ele><time>2026-05-16T21:47:17.000Z</time></trkpt>
        <trkpt lat="29.5003671" lon="104.0963416"><ele>326.31</ele><time>2026-05-16T21:47:27.000Z</time></trkpt>
        <trkpt lat="29.500328" lon="104.0964502"><ele>326.86</ele><time>2026-05-16T21:47:35.000Z</time></trkpt>
        <trkpt lat="29.5003054" lon="104.0965717"><ele>327.08</ele><time>2026-05-16T21:47:45.000Z</time></trkpt>
        <trkpt lat="29.5002853" lon="104.0966863"><ele>327.32</ele><time>2026-05-16T21:47:53.000Z</time></trkpt>
        <trkpt lat="29.5002594" lon="104.0967976"><ele>328.49</ele><time>2026-05-16T21:48:01.000Z</time></trkpt>
        <trkpt lat="29.5002088" lon="104.0969034"><ele>329.36</ele><time>2026-05-16T21:48:11.000Z</time></trkpt>
        <trkpt lat="29.5001629" lon="104.0970072"><ele>330.11</ele><time>2026-05-16T21:48:23.000Z</time></trkpt>
        <trkpt lat="29.5001047" lon="104.0970275"><ele>330.42</ele><time>2026-05-16T21:48:33.000Z</time></trkpt>
        <trkpt lat="29.5000572" lon="104.0969407"><ele>329.94</ele><time>2026-05-16T21:48:47.000Z</time></trkpt>
        <trkpt lat="29.5000416" lon="104.0968143"><ele>328.65</ele><time>2026-05-16T21:48:57.000Z</time></trkpt>
        <trkpt lat="29.5000309" lon="104.0967115"><ele>327.31</ele><time>2026-05-16T21:49:11.000Z</time></trkpt>
        <trkpt lat="29.4999668" lon="104.0966347"><ele>326.41</ele><time>2026-05-16T21:49:29.000Z</time></trkpt>
        <trkpt lat="29.4999568" lon="104.096642"><ele>325.64</ele><time>2026-05-16T21:49:33.000Z</time></trkpt>
        <trkpt lat="29.4999685" lon="104.0965717"><ele>325.39</ele><time>2026-05-16T21:49:51.000Z</time></trkpt>
        <trkpt lat="29.4999104" lon="104.0964866"><ele>325.49</ele><time>2026-05-16T21:50:56.000Z</time></trkpt>
        <trkpt lat="29.4998515" lon="104.0963961"><ele>325.93</ele><time>2026-05-16T21:51:12.000Z</time></trkpt>
        <trkpt lat="29.4998055" lon="104.0963417"><ele>326.06</ele><time>2026-05-16T21:51:28.000Z</time></trkpt>
        <trkpt lat="29.4997557" lon="104.0962569"><ele>327.64</ele><time>2026-05-16T21:52:14.000Z</time></trkpt>
        <trkpt lat="29.4996983" lon="104.0961722"><ele>331.02</ele><time>2026-05-16T21:52:26.000Z</time></trkpt>
        <trkpt lat="29.4996459" lon="104.0960764"><ele>333.37</ele><time>2026-05-16T21:52:36.000Z</time></trkpt>
        <trkpt lat="29.4995882" lon="104.0959812"><ele>334.41</ele><time>2026-05-16T21:52:46.000Z</time></trkpt>
        <trkpt lat="29.4995301" lon="104.0958797"><ele>335.67</ele><time>2026-05-16T21:52:58.000Z</time></trkpt>
        <trkpt lat="29.499495" lon="104.0958095"><ele>336.59</ele><time>2026-05-16T21:53:06.000Z</time></trkpt>
        <trkpt lat="29.4994316" lon="104.095744"><ele>337.7</ele><time>2026-05-16T21:53:17.000Z</time></trkpt>
        <trkpt lat="29.4993819" lon="104.0956518"><ele>338.9</ele><time>2026-05-16T21:54:13.000Z</time></trkpt>
        <trkpt lat="29.4993021" lon="104.0955327"><ele>337.04</ele><time>2026-05-16T21:55:18.000Z</time></trkpt>
        <trkpt lat="29.4988994" lon="104.095267"><ele>335.18</ele><time>2026-05-16T21:56:44.000Z</time></trkpt>
        <trkpt lat="29.4988111" lon="104.0953257"><ele>335.82</ele><time>2026-05-16T21:56:59.000Z</time></trkpt>
        <trkpt lat="29.4987225" lon="104.0953613"><ele>336</ele><time>2026-05-16T21:57:09.000Z</time></trkpt>
        <trkpt lat="29.4986353" lon="104.0953899"><ele>336.48</ele><time>2026-05-16T21:57:19.000Z</time></trkpt>
        <trkpt lat="29.4985452" lon="104.0953643"><ele>336.86</ele><time>2026-05-16T21:57:35.000Z</time></trkpt>
        <trkpt lat="29.4984782" lon="104.0954146"><ele>338.42</ele><time>2026-05-16T21:57:45.000Z</time></trkpt>
        <trkpt lat="29.4984006" lon="104.0955112"><ele>338.79</ele><time>2026-05-16T21:57:59.000Z</time></trkpt>
        <trkpt lat="29.4983315" lon="104.0955985"><ele>339.39</ele><time>2026-05-16T21:58:07.000Z</time></trkpt>
        <trkpt lat="29.4982644" lon="104.095679"><ele>339.59</ele><time>2026-05-16T21:58:17.000Z</time></trkpt>
        <trkpt lat="29.4981932" lon="104.0957614"><ele>339.65</ele><time>2026-05-16T21:58:29.000Z</time></trkpt>
        <trkpt lat="29.4981257" lon="104.0958533"><ele>338.91</ele><time>2026-05-16T21:58:47.000Z</time></trkpt>
        <trkpt lat="29.4980354" lon="104.095914"><ele>337.34</ele><time>2026-05-16T21:59:01.000Z</time></trkpt>
        <trkpt lat="29.4979416" lon="104.0959406"><ele>338.48</ele><time>2026-05-16T21:59:11.000Z</time></trkpt>
        <trkpt lat="29.4978443" lon="104.0959253"><ele>340.82</ele><time>2026-05-16T21:59:23.000Z</time></trkpt>
        <trkpt lat="29.4977396" lon="104.0959037"><ele>344.24</ele><time>2026-05-16T21:59:35.000Z</time></trkpt>
        <trkpt lat="29.4976604" lon="104.0958381"><ele>347.2</ele><time>2026-05-16T21:59:43.000Z</time></trkpt>
        <trkpt lat="29.4975946" lon="104.0957476"><ele>348.1</ele><time>2026-05-16T21:59:53.000Z</time></trkpt>
        <trkpt lat="29.4975256" lon="104.0956722"><ele>348.03</ele><time>2026-05-16T22:00:01.000Z</time></trkpt>
        <trkpt lat="29.4974336" lon="104.0956571"><ele>347.72</ele><time>2026-05-16T22:00:17.000Z</time></trkpt>
        <trkpt lat="29.4973391" lon="104.0956716"><ele>348.88</ele><time>2026-05-16T22:00:27.000Z</time></trkpt>
        <trkpt lat="29.4972496" lon="104.0957406"><ele>350.67</ele><time>2026-05-16T22:00:37.000Z</time></trkpt>
        <trkpt lat="29.4971806" lon="104.0958322"><ele>351.52</ele><time>2026-05-16T22:00:47.000Z</time></trkpt>
        <trkpt lat="29.4971067" lon="104.0959305"><ele>351.56</ele><time>2026-05-16T22:00:59.000Z</time></trkpt>
        <trkpt lat="29.497031" lon="104.0960194"><ele>350.41</ele><time>2026-05-16T22:01:09.000Z</time></trkpt>
        <trkpt lat="29.4969394" lon="104.0960859"><ele>349.07</ele><time>2026-05-16T22:01:19.000Z</time></trkpt>
        <trkpt lat="29.4968483" lon="104.0961581"><ele>347.88</ele><time>2026-05-16T22:01:33.000Z</time></trkpt>
        <trkpt lat="29.4967503" lon="104.0961739"><ele>348.12</ele><time>2026-05-16T22:01:41.000Z</time></trkpt>
        <trkpt lat="29.49665" lon="104.0961696"><ele>349.15</ele><time>2026-05-16T22:01:51.000Z</time></trkpt>
        <trkpt lat="29.4965523" lon="104.0961829"><ele>350.46</ele><time>2026-05-16T22:02:01.000Z</time></trkpt>
        <trkpt lat="29.4964594" lon="104.0962042"><ele>351.33</ele><time>2026-05-16T22:02:11.000Z</time></trkpt>
        <trkpt lat="29.4963656" lon="104.0962482"><ele>351.19</ele><time>2026-05-16T22:02:29.000Z</time></trkpt>
        <trkpt lat="29.4962776" lon="104.0962952"><ele>350.25</ele><time>2026-05-16T22:02:39.000Z</time></trkpt>
        <trkpt lat="29.4961845" lon="104.0963099"><ele>350.1</ele><time>2026-05-16T22:02:51.000Z</time></trkpt>
        <trkpt lat="29.4960852" lon="104.0962957"><ele>350.43</ele><time>2026-05-16T22:03:03.000Z</time></trkpt>
        <trkpt lat="29.4959914" lon="104.0962697"><ele>350.22</ele><time>2026-05-16T22:03:13.000Z</time></trkpt>
        <trkpt lat="29.4958976" lon="104.0962311"><ele>349.73</ele><time>2026-05-16T22:03:23.000Z</time></trkpt>
        <trkpt lat="29.4957998" lon="104.0961819"><ele>348.72</ele><time>2026-05-16T22:03:33.000Z</time></trkpt>
        <trkpt lat="29.4957069" lon="104.0961834"><ele>348.27</ele><time>2026-05-16T22:03:43.000Z</time></trkpt>
        <trkpt lat="29.4956871" lon="104.096192"><ele>349.17</ele><time>2026-05-16T22:03:45.000Z</time></trkpt>
        <trkpt lat="29.4956176" lon="104.0962379"><ele>349.55</ele><time>2026-05-16T22:03:57.000Z</time></trkpt>
        <trkpt lat="29.4955351" lon="104.0962812"><ele>347.95</ele><time>2026-05-16T22:04:05.000Z</time></trkpt>
        <trkpt lat="29.4954559" lon="104.0963549"><ele>346.61</ele><time>2026-05-16T22:04:21.000Z</time></trkpt>
        <trkpt lat="29.4954091" lon="104.0963905"><ele>343.8</ele><time>2026-05-16T22:04:29.000Z</time></trkpt>
        <trkpt lat="29.4953276" lon="104.096427"><ele>342.81</ele><time>2026-05-16T22:05:23.000Z</time></trkpt>
        <trkpt lat="29.4952584" lon="104.0964934"><ele>340.51</ele><time>2026-05-16T22:05:37.000Z</time></trkpt>
        <trkpt lat="29.495203" lon="104.0965845"><ele>338.44</ele><time>2026-05-16T22:06:07.000Z</time></trkpt>
        <trkpt lat="29.4952587" lon="104.0966145"><ele>337.62</ele><time>2026-05-16T22:06:39.000Z</time></trkpt>
        <trkpt lat="29.495351" lon="104.0966491"><ele>335.87</ele><time>2026-05-16T22:06:49.000Z</time></trkpt>
        <trkpt lat="29.4954611" lon="104.0966757"><ele>334.88</ele><time>2026-05-16T22:07:03.000Z</time></trkpt>
        <trkpt lat="29.4955651" lon="104.0966893"><ele>332.99</ele><time>2026-05-16T22:07:13.000Z</time></trkpt>
        <trkpt lat="29.4956612" lon="104.0967209"><ele>330.93</ele><time>2026-05-16T22:07:23.000Z</time></trkpt>
        <trkpt lat="29.495753" lon="104.096758"><ele>330.57</ele><time>2026-05-16T22:07:35.000Z</time></trkpt>
        <trkpt lat="29.495848" lon="104.0967677"><ele>330.34</ele><time>2026-05-16T22:07:45.000Z</time></trkpt>
        <trkpt lat="29.4959449" lon="104.0967586"><ele>330.31</ele><time>2026-05-16T22:07:57.000Z</time></trkpt>
        <trkpt lat="29.4960426" lon="104.0967597"><ele>330.15</ele><time>2026-05-16T22:08:09.000Z</time></trkpt>
        <trkpt lat="29.4961389" lon="104.0967732"><ele>329.74</ele><time>2026-05-16T22:08:23.000Z</time></trkpt>
        <trkpt lat="29.4962343" lon="104.0967906"><ele>329.8</ele><time>2026-05-16T22:08:33.000Z</time></trkpt>
        <trkpt lat="29.4963107" lon="104.0967345"><ele>330.86</ele><time>2026-05-16T22:08:55.000Z</time></trkpt>
        <trkpt lat="29.4963881" lon="104.0967618"><ele>332.27</ele><time>2026-05-16T22:09:05.000Z</time></trkpt>
        <trkpt lat="29.4964064" lon="104.0968643"><ele>328.98</ele><time>2026-05-16T22:09:15.000Z</time></trkpt>
        <trkpt lat="29.4963784" lon="104.0969788"><ele>330.74</ele><time>2026-05-16T22:09:25.000Z</time></trkpt>
        <trkpt lat="29.4963163" lon="104.0970851"><ele>330.53</ele><time>2026-05-16T22:09:37.000Z</time></trkpt>
        <trkpt lat="29.4962185" lon="104.0971132"><ele>331.15</ele><time>2026-05-16T22:09:47.000Z</time></trkpt>
        <trkpt lat="29.4961164" lon="104.0970861"><ele>332.7</ele><time>2026-05-16T22:09:57.000Z</time></trkpt>
        <trkpt lat="29.496093" lon="104.0970669"><ele>333.8</ele><time>2026-05-16T22:09:59.000Z</time></trkpt>
        <trkpt lat="29.4960159" lon="104.0970781"><ele>333.61</ele><time>2026-05-16T22:10:19.000Z</time></trkpt>
        <trkpt lat="29.4959153" lon="104.097089"><ele>335.41</ele><time>2026-05-16T22:10:29.000Z</time></trkpt>
        <trkpt lat="29.4958069" lon="104.0971023"><ele>337.67</ele><time>2026-05-16T22:10:41.000Z</time></trkpt>
        <trkpt lat="29.4957078" lon="104.0970951"><ele>338.1</ele><time>2026-05-16T22:10:53.000Z</time></trkpt>
        <trkpt lat="29.495611" lon="104.0970872"><ele>338.57</ele><time>2026-05-16T22:11:29.000Z</time></trkpt>
        <trkpt lat="29.4955241" lon="104.0971114"><ele>339.23</ele><time>2026-05-16T22:12:39.000Z</time></trkpt>
        <trkpt lat="29.4954333" lon="104.0970665"><ele>340.44</ele><time>2026-05-16T22:12:49.000Z</time></trkpt>
        <trkpt lat="29.4953435" lon="104.0970348"><ele>341.2</ele><time>2026-05-16T22:12:59.000Z</time></trkpt>
        <trkpt lat="29.4952438" lon="104.0970135"><ele>341.49</ele><time>2026-05-16T22:13:09.000Z</time></trkpt>
        <trkpt lat="29.4951501" lon="104.0970301"><ele>341.87</ele><time>2026-05-16T22:13:19.000Z</time></trkpt>
        <trkpt lat="29.4950526" lon="104.0970564"><ele>341.04</ele><time>2026-05-16T22:13:31.000Z</time></trkpt>
        <trkpt lat="29.4949479" lon="104.0970552"><ele>340.94</ele><time>2026-05-16T22:13:41.000Z</time></trkpt>
        <trkpt lat="29.4948626" lon="104.0970113"><ele>340.11</ele><time>2026-05-16T22:13:49.000Z</time></trkpt>
        <trkpt lat="29.4947779" lon="104.0970155"><ele>338.34</ele><time>2026-05-16T22:13:57.000Z</time></trkpt>
        <trkpt lat="29.4946865" lon="104.0970074"><ele>337.63</ele><time>2026-05-16T22:14:07.000Z</time></trkpt>
        <trkpt lat="29.4945855" lon="104.0969729"><ele>337.56</ele><time>2026-05-16T22:14:17.000Z</time></trkpt>
        <trkpt lat="29.4945019" lon="104.0969192"><ele>337.54</ele><time>2026-05-16T22:14:25.000Z</time></trkpt>
        <trkpt lat="29.4944162" lon="104.0968648"><ele>337.48</ele><time>2026-05-16T22:14:33.000Z</time></trkpt>
        <trkpt lat="29.4943615" lon="104.0969257"><ele>336.21</ele><time>2026-05-16T22:14:51.000Z</time></trkpt>
        <trkpt lat="29.4943908" lon="104.097027"><ele>335.17</ele><time>2026-05-16T22:15:07.000Z</time></trkpt>
        <trkpt lat="29.4943978" lon="104.0971473"><ele>333.83</ele><time>2026-05-16T22:15:29.000Z</time></trkpt>
        <trkpt lat="29.4943478" lon="104.0972341"><ele>338.33</ele><time>2026-05-16T22:15:37.000Z</time></trkpt>
        <trkpt lat="29.4942627" lon="104.0973162"><ele>341.37</ele><time>2026-05-16T22:15:47.000Z</time></trkpt>
        <trkpt lat="29.4942621" lon="104.0974087"><ele>343.5</ele><time>2026-05-16T22:15:57.000Z</time></trkpt>
        <trkpt lat="29.4943107" lon="104.097509"><ele>344.41</ele><time>2026-05-16T22:16:07.000Z</time></trkpt>
        <trkpt lat="29.4943516" lon="104.0975506"><ele>344.99</ele><time>2026-05-16T22:16:13.000Z</time></trkpt>
        <trkpt lat="29.4944232" lon="104.0976055"><ele>344.99</ele><time>2026-05-16T22:16:49.000Z</time></trkpt>
        <trkpt lat="29.4944973" lon="104.0976803"><ele>345.36</ele><time>2026-05-16T22:16:59.000Z</time></trkpt>
        <trkpt lat="29.4945844" lon="104.0977538"><ele>346.09</ele><time>2026-05-16T22:17:09.000Z</time></trkpt>
        <trkpt lat="29.4946625" lon="104.0978285"><ele>346.66</ele><time>2026-05-16T22:17:21.000Z</time></trkpt>
        <trkpt lat="29.4946779" lon="104.0979321"><ele>347.35</ele><time>2026-05-16T22:17:33.000Z</time></trkpt>
        <trkpt lat="29.4947405" lon="104.0979138"><ele>347.97</ele><time>2026-05-16T22:17:51.000Z</time></trkpt>
        <trkpt lat="29.4948282" lon="104.0978742"><ele>348.63</ele><time>2026-05-16T22:18:01.000Z</time></trkpt>
        <trkpt lat="29.4949261" lon="104.0978632"><ele>350.68</ele><time>2026-05-16T22:18:13.000Z</time></trkpt>
        <trkpt lat="29.4950256" lon="104.0978715"><ele>353.01</ele><time>2026-05-16T22:18:23.000Z</time></trkpt>
        <trkpt lat="29.4951309" lon="104.0978949"><ele>354.66</ele><time>2026-05-16T22:18:33.000Z</time></trkpt>
        <trkpt lat="29.495236" lon="104.0979318"><ele>356.35</ele><time>2026-05-16T22:18:43.000Z</time></trkpt>
        <trkpt lat="29.4953399" lon="104.097975"><ele>357.49</ele><time>2026-05-16T22:18:53.000Z</time></trkpt>
        <trkpt lat="29.4954215" lon="104.0980095"><ele>358.21</ele><time>2026-05-16T22:19:01.000Z</time></trkpt>
        <trkpt lat="29.4955056" lon="104.0980611"><ele>358.99</ele><time>2026-05-16T22:19:21.000Z</time></trkpt>
        <trkpt lat="29.4955892" lon="104.0981115"><ele>358.93</ele><time>2026-05-16T22:19:29.000Z</time></trkpt>
        <trkpt lat="29.4956835" lon="104.0981443"><ele>358.81</ele><time>2026-05-16T22:19:37.000Z</time></trkpt>
        <trkpt lat="29.4957882" lon="104.0981474"><ele>359.65</ele><time>2026-05-16T22:19:47.000Z</time></trkpt>
        <trkpt lat="29.4958945" lon="104.098114"><ele>361.01</ele><time>2026-05-16T22:19:59.000Z</time></trkpt>
        <trkpt lat="29.4959867" lon="104.0981389"><ele>360.3</ele><time>2026-05-16T22:20:07.000Z</time></trkpt>
        <trkpt lat="29.4960837" lon="104.0981149"><ele>361.02</ele><time>2026-05-16T22:20:19.000Z</time></trkpt>
        <trkpt lat="29.4961748" lon="104.0980758"><ele>359.25</ele><time>2026-05-16T22:20:33.000Z</time></trkpt>
        <trkpt lat="29.4961794" lon="104.0981401"><ele>357.72</ele><time>2026-05-16T22:21:17.000Z</time></trkpt>
        <trkpt lat="29.4962161" lon="104.0982372"><ele>360.07</ele><time>2026-05-16T22:21:33.000Z</time></trkpt>
        <trkpt lat="29.496297" lon="104.0982671"><ele>362.59</ele><time>2026-05-16T22:21:51.000Z</time></trkpt>
        <trkpt lat="29.4963878" lon="104.0983079"><ele>364.18</ele><time>2026-05-16T22:22:11.000Z</time></trkpt>
        <trkpt lat="29.4964658" lon="104.0983681"><ele>364.8</ele><time>2026-05-16T22:22:19.000Z</time></trkpt>
        <trkpt lat="29.4965499" lon="104.0984181"><ele>365.53</ele><time>2026-05-16T22:22:27.000Z</time></trkpt>
        <trkpt lat="29.4966346" lon="104.0984707"><ele>366.48</ele><time>2026-05-16T22:22:35.000Z</time></trkpt>
        <trkpt lat="29.4966873" lon="104.0985166"><ele>367.28</ele><time>2026-05-16T22:22:43.000Z</time></trkpt>
        <trkpt lat="29.4967539" lon="104.0985825"><ele>368.02</ele><time>2026-05-16T22:22:55.000Z</time></trkpt>
        <trkpt lat="29.4968237" lon="104.0986742"><ele>369.89</ele><time>2026-05-16T22:23:05.000Z</time></trkpt>
        <trkpt lat="29.4969024" lon="104.0987448"><ele>370.6</ele><time>2026-05-16T22:23:17.000Z</time></trkpt>
        <trkpt lat="29.4970015" lon="104.0987864"><ele>371.92</ele><time>2026-05-16T22:23:27.000Z</time></trkpt>
        <trkpt lat="29.497084" lon="104.0988034"><ele>373.61</ele><time>2026-05-16T22:23:37.000Z</time></trkpt>
        <trkpt lat="29.4971732" lon="104.0988539"><ele>374.22</ele><time>2026-05-16T22:23:49.000Z</time></trkpt>
        <trkpt lat="29.4972262" lon="104.0989141"><ele>375.4</ele><time>2026-05-16T22:24:01.000Z</time></trkpt>
        <trkpt lat="29.4972611" lon="104.0990136"><ele>376.74</ele><time>2026-05-16T22:24:17.000Z</time></trkpt>
        <trkpt lat="29.4973212" lon="104.0990972"><ele>378.75</ele><time>2026-05-16T22:24:25.000Z</time></trkpt>
        <trkpt lat="29.4973863" lon="104.0991782"><ele>381.23</ele><time>2026-05-16T22:24:39.000Z</time></trkpt>
        <trkpt lat="29.4974267" lon="104.0992728"><ele>383.17</ele><time>2026-05-16T22:24:55.000Z</time></trkpt>
        <trkpt lat="29.4973993" lon="104.099366"><ele>383.97</ele><time>2026-05-16T22:25:07.000Z</time></trkpt>
        <trkpt lat="29.497367" lon="104.09948"><ele>384.29</ele><time>2026-05-16T22:25:21.000Z</time></trkpt>
        <trkpt lat="29.4973557" lon="104.0995913"><ele>382.46</ele><time>2026-05-16T22:25:33.000Z</time></trkpt>
        <trkpt lat="29.4974032" lon="104.0996783"><ele>380.94</ele><time>2026-05-16T22:25:49.000Z</time></trkpt>
        <trkpt lat="29.4974607" lon="104.0997675"><ele>379.17</ele><time>2026-05-16T22:26:01.000Z</time></trkpt>
        <trkpt lat="29.4975053" lon="104.0998634"><ele>378.68</ele><time>2026-05-16T22:26:13.000Z</time></trkpt>
        <trkpt lat="29.4975726" lon="104.0999349"><ele>376.86</ele><time>2026-05-16T22:26:23.000Z</time></trkpt>
        <trkpt lat="29.4976088" lon="104.0999914"><ele>375.08</ele><time>2026-05-16T22:26:31.000Z</time></trkpt>
        <trkpt lat="29.4976327" lon="104.1000838"><ele>375.68</ele><time>2026-05-16T22:26:51.000Z</time></trkpt>
        <trkpt lat="29.4976977" lon="104.1001571"><ele>377.19</ele><time>2026-05-16T22:26:57.000Z</time></trkpt>
        <trkpt lat="29.4977505" lon="104.1002427"><ele>376.25</ele><time>2026-05-16T22:27:07.000Z</time></trkpt>
        <trkpt lat="29.497753" lon="104.1002503"><ele>376.26</ele><time>2026-05-16T22:27:15.000Z</time></trkpt>
        <trkpt lat="29.4978033" lon="104.1003046"><ele>377.23</ele><time>2026-05-16T22:27:35.000Z</time></trkpt>
        <trkpt lat="29.497894" lon="104.1003495"><ele>377.86</ele><time>2026-05-16T22:28:11.000Z</time></trkpt>
        <trkpt lat="29.4979945" lon="104.1003702"><ele>377.41</ele><time>2026-05-16T22:28:23.000Z</time></trkpt>
        <trkpt lat="29.4980997" lon="104.1003548"><ele>379.52</ele><time>2026-05-16T22:28:43.000Z</time></trkpt>
        <trkpt lat="29.4981956" lon="104.1003711"><ele>381.31</ele><time>2026-05-16T22:28:51.000Z</time></trkpt>
        <trkpt lat="29.4982405" lon="104.1004008"><ele>382.86</ele><time>2026-05-16T22:29:00.000Z</time></trkpt>
        <trkpt lat="29.4983034" lon="104.1004521"><ele>383.49</ele><time>2026-05-16T22:29:16.000Z</time></trkpt>
        <trkpt lat="29.4983615" lon="104.1005345"><ele>384.11</ele><time>2026-05-16T22:29:24.000Z</time></trkpt>
        <trkpt lat="29.4984074" lon="104.1006285"><ele>385.23</ele><time>2026-05-16T22:29:34.000Z</time></trkpt>
        <trkpt lat="29.4984487" lon="104.1007329"><ele>386.02</ele><time>2026-05-16T22:29:44.000Z</time></trkpt>
        <trkpt lat="29.4984672" lon="104.100854"><ele>387.26</ele><time>2026-05-16T22:29:54.000Z</time></trkpt>
        <trkpt lat="29.4984328" lon="104.1009613"><ele>388.93</ele><time>2026-05-16T22:30:04.000Z</time></trkpt>
        <trkpt lat="29.498349" lon="104.1010382"><ele>393.36</ele><time>2026-05-16T22:30:14.000Z</time></trkpt>
        <trkpt lat="29.4982522" lon="104.1011037"><ele>396.41</ele><time>2026-05-16T22:30:24.000Z</time></trkpt>
        <trkpt lat="29.4981669" lon="104.1011699"><ele>397.49</ele><time>2026-05-16T22:30:32.000Z</time></trkpt>
        <trkpt lat="29.4981243" lon="104.1011839"><ele>396.76</ele><time>2026-05-16T22:30:35.000Z</time></trkpt>
        <trkpt lat="29.4981648" lon="104.1012446"><ele>396</ele><time>2026-05-16T22:30:55.000Z</time></trkpt>
        <trkpt lat="29.4982604" lon="104.1012898"><ele>393.15</ele><time>2026-05-16T22:31:03.000Z</time></trkpt>
        <trkpt lat="29.4983786" lon="104.1012941"><ele>391.69</ele><time>2026-05-16T22:31:15.000Z</time></trkpt>
        <trkpt lat="29.4984929" lon="104.1012835"><ele>390.81</ele><time>2026-05-16T22:31:47.000Z</time></trkpt>
        <trkpt lat="29.4985854" lon="104.1013375"><ele>390.68</ele><time>2026-05-16T22:31:57.000Z</time></trkpt>
        <trkpt lat="29.4986604" lon="104.1014162"><ele>390.16</ele><time>2026-05-16T22:32:05.000Z</time></trkpt>
        <trkpt lat="29.4987138" lon="104.1015068"><ele>389.6</ele><time>2026-05-16T22:32:13.000Z</time></trkpt>
        <trkpt lat="29.4987324" lon="104.1016125"><ele>388.48</ele><time>2026-05-16T22:32:21.000Z</time></trkpt>
        <trkpt lat="29.4987195" lon="104.101721"><ele>387.51</ele><time>2026-05-16T22:32:31.000Z</time></trkpt>
        <trkpt lat="29.4987091" lon="104.1018142"><ele>387.29</ele><time>2026-05-16T22:32:41.000Z</time></trkpt>
        <trkpt lat="29.498743" lon="104.1019058"><ele>387.78</ele><time>2026-05-16T22:33:00.000Z</time></trkpt>
        <trkpt lat="29.4987995" lon="104.1019876"><ele>388.44</ele><time>2026-05-16T22:33:08.000Z</time></trkpt>
        <trkpt lat="29.4988485" lon="104.1020876"><ele>390.54</ele><time>2026-05-16T22:33:18.000Z</time></trkpt>
        <trkpt lat="29.4989022" lon="104.1021795"><ele>391.32</ele><time>2026-05-16T22:33:26.000Z</time></trkpt>
        <trkpt lat="29.4989392" lon="104.1022761"><ele>392.15</ele><time>2026-05-16T22:33:34.000Z</time></trkpt>
        <trkpt lat="29.4989803" lon="104.10237"><ele>393.02</ele><time>2026-05-16T22:33:42.000Z</time></trkpt>
        <trkpt lat="29.4990123" lon="104.1024848"><ele>393.44</ele><time>2026-05-16T22:33:52.000Z</time></trkpt>
        <trkpt lat="29.4990144" lon="104.1026072"><ele>392.9</ele><time>2026-05-16T22:34:00.000Z</time></trkpt>
        <trkpt lat="29.4989993" lon="104.1027256"><ele>392.12</ele><time>2026-05-16T22:34:08.000Z</time></trkpt>
        <trkpt lat="29.4989951" lon="104.1028027"><ele>391.05</ele><time>2026-05-16T22:34:15.000Z</time></trkpt>
        <trkpt lat="29.4989488" lon="104.1029003"><ele>391.5</ele><time>2026-05-16T22:34:35.000Z</time></trkpt>
        <trkpt lat="29.4989078" lon="104.1030071"><ele>390.2</ele><time>2026-05-16T22:34:45.000Z</time></trkpt>
        <trkpt lat="29.4988923" lon="104.1031242"><ele>389.36</ele><time>2026-05-16T22:34:53.000Z</time></trkpt>
        <trkpt lat="29.4988707" lon="104.1032312"><ele>390.33</ele><time>2026-05-16T22:35:01.000Z</time></trkpt>
        <trkpt lat="29.4988336" lon="104.1033301"><ele>390.49</ele><time>2026-05-16T22:35:11.000Z</time></trkpt>
        <trkpt lat="29.4987909" lon="104.1034317"><ele>391.86</ele><time>2026-05-16T22:35:21.000Z</time></trkpt>
        <trkpt lat="29.4987422" lon="104.1035473"><ele>393.59</ele><time>2026-05-16T22:35:29.000Z</time></trkpt>
        <trkpt lat="29.4986735" lon="104.1036242"><ele>395.12</ele><time>2026-05-16T22:35:35.000Z</time></trkpt>
        <trkpt lat="29.4985993" lon="104.1036949"><ele>396.68</ele><time>2026-05-16T22:35:43.000Z</time></trkpt>
        <trkpt lat="29.4985221" lon="104.1037554"><ele>398.94</ele><time>2026-05-16T22:35:52.000Z</time></trkpt>
        <trkpt lat="29.4984399" lon="104.1038138"><ele>400</ele><time>2026-05-16T22:36:00.000Z</time></trkpt>
        <trkpt lat="29.4983531" lon="104.1038809"><ele>401</ele><time>2026-05-16T22:36:10.000Z</time></trkpt>
        <trkpt lat="29.4982667" lon="104.1040242"><ele>400.45</ele><time>2026-05-16T22:36:22.000Z</time></trkpt>
        <trkpt lat="29.4981681" lon="104.1040767"><ele>399.15</ele><time>2026-05-16T22:36:29.000Z</time></trkpt>
        <trkpt lat="29.4980716" lon="104.1040984"><ele>399.91</ele><time>2026-05-16T22:36:37.000Z</time></trkpt>
        <trkpt lat="29.497993" lon="104.1041453"><ele>400.5</ele><time>2026-05-16T22:36:47.000Z</time></trkpt>
        <trkpt lat="29.4979724" lon="104.1042513"><ele>401.11</ele><time>2026-05-16T22:36:57.000Z</time></trkpt>
        <trkpt lat="29.49799" lon="104.1043643"><ele>400.69</ele><time>2026-05-16T22:37:05.000Z</time></trkpt>
        <trkpt lat="29.4980155" lon="104.1044162"><ele>400.52</ele><time>2026-05-16T22:37:15.000Z</time></trkpt>
        <trkpt lat="29.4980698" lon="104.1044945"><ele>399.98</ele><time>2026-05-16T22:38:03.000Z</time></trkpt>
        <trkpt lat="29.4980941" lon="104.1046109"><ele>397.87</ele><time>2026-05-16T22:38:13.000Z</time></trkpt>
        <trkpt lat="29.4980717" lon="104.1047337"><ele>396.5</ele><time>2026-05-16T22:38:23.000Z</time></trkpt>
        <trkpt lat="29.4980544" lon="104.1048448"><ele>396.11</ele><time>2026-05-16T22:38:31.000Z</time></trkpt>
        <trkpt lat="29.4981017" lon="104.1049298"><ele>398.07</ele><time>2026-05-16T22:38:39.000Z</time></trkpt>
        <trkpt lat="29.4981844" lon="104.1049751"><ele>398.56</ele><time>2026-05-16T22:38:45.000Z</time></trkpt>
        <trkpt lat="29.4982917" lon="104.1049968"><ele>398.66</ele><time>2026-05-16T22:38:53.000Z</time></trkpt>
        <trkpt lat="29.498393" lon="104.105025"><ele>398.96</ele><time>2026-05-16T22:39:01.000Z</time></trkpt>
        <trkpt lat="29.4984863" lon="104.1050701"><ele>400.03</ele><time>2026-05-16T22:39:09.000Z</time></trkpt>
        <trkpt lat="29.4984909" lon="104.1051339"><ele>400.56</ele><time>2026-05-16T22:39:19.000Z</time></trkpt>
        <trkpt lat="29.4984505" lon="104.1052256"><ele>400.87</ele><time>2026-05-16T22:39:33.000Z</time></trkpt>
        <trkpt lat="29.4984141" lon="104.1053294"><ele>402.17</ele><time>2026-05-16T22:39:39.000Z</time></trkpt>
        <trkpt lat="29.4983991" lon="104.1054478"><ele>403.65</ele><time>2026-05-16T22:39:47.000Z</time></trkpt>
        <trkpt lat="29.4984049" lon="104.1055444"><ele>404.94</ele><time>2026-05-16T22:39:55.000Z</time></trkpt>
        <trkpt lat="29.4984458" lon="104.1056329"><ele>405.44</ele><time>2026-05-16T22:40:03.000Z</time></trkpt>
        <trkpt lat="29.4985025" lon="104.1057254"><ele>405.66</ele><time>2026-05-16T22:40:13.000Z</time></trkpt>
        <trkpt lat="29.4985684" lon="104.1058191"><ele>405.06</ele><time>2026-05-16T22:40:23.000Z</time></trkpt>
        <trkpt lat="29.4986314" lon="104.105908"><ele>405.65</ele><time>2026-05-16T22:40:31.000Z</time></trkpt>
        <trkpt lat="29.4986885" lon="104.1060035"><ele>407.21</ele><time>2026-05-16T22:40:39.000Z</time></trkpt>
        <trkpt lat="29.498761" lon="104.1060901"><ele>405.42</ele><time>2026-05-16T22:40:47.000Z</time></trkpt>
        <trkpt lat="29.4988349" lon="104.1061739"><ele>403.83</ele><time>2026-05-16T22:40:55.000Z</time></trkpt>
        <trkpt lat="29.4988955" lon="104.1062743"><ele>403.76</ele><time>2026-05-16T22:41:05.000Z</time></trkpt>
        <trkpt lat="29.4989572" lon="104.1063618"><ele>404.34</ele><time>2026-05-16T22:41:13.000Z</time></trkpt>
        <trkpt lat="29.4990106" lon="104.1064592"><ele>404.33</ele><time>2026-05-16T22:41:25.000Z</time></trkpt>
        <trkpt lat="29.4990959" lon="104.1065023"><ele>403.2</ele><time>2026-05-16T22:41:35.000Z</time></trkpt>
        <trkpt lat="29.4991754" lon="104.1065662"><ele>402.6</ele><time>2026-05-16T22:41:45.000Z</time></trkpt>
        <trkpt lat="29.4992287" lon="104.1066721"><ele>401.2</ele><time>2026-05-16T22:41:55.000Z</time></trkpt>
        <trkpt lat="29.4992351" lon="104.1067841"><ele>400.22</ele><time>2026-05-16T22:42:03.000Z</time></trkpt>
        <trkpt lat="29.4992382" lon="104.1069118"><ele>400.55</ele><time>2026-05-16T22:42:11.000Z</time></trkpt>
        <trkpt lat="29.4992347" lon="104.1070324"><ele>401.47</ele><time>2026-05-16T22:42:21.000Z</time></trkpt>
        <trkpt lat="29.4992754" lon="104.1071293"><ele>401.98</ele><time>2026-05-16T22:42:31.000Z</time></trkpt>
        <trkpt lat="29.4992919" lon="104.1071374"><ele>404.39</ele><time>2026-05-16T22:42:35.000Z</time></trkpt>
        <trkpt lat="29.4993599" lon="104.1071708"><ele>405.61</ele><time>2026-05-16T22:42:59.000Z</time></trkpt>
        <trkpt lat="29.4994213" lon="104.1072618"><ele>406.86</ele><time>2026-05-16T22:43:09.000Z</time></trkpt>
        <trkpt lat="29.4994918" lon="104.1073574"><ele>406.17</ele><time>2026-05-16T22:43:19.000Z</time></trkpt>
        <trkpt lat="29.4995227" lon="104.1074203"><ele>406.73</ele><time>2026-05-16T22:43:27.000Z</time></trkpt>
        <trkpt lat="29.4995851" lon="104.1074892"><ele>407.52</ele><time>2026-05-16T22:44:05.000Z</time></trkpt>
        <trkpt lat="29.4996535" lon="104.1075796"><ele>407.56</ele><time>2026-05-16T22:44:17.000Z</time></trkpt>
        <trkpt lat="29.4997263" lon="104.107671"><ele>407.76</ele><time>2026-05-16T22:44:27.000Z</time></trkpt>
        <trkpt lat="29.499794" lon="104.1077677"><ele>407.92</ele><time>2026-05-16T22:44:37.000Z</time></trkpt>
        <trkpt lat="29.4998355" lon="104.1078672"><ele>408.44</ele><time>2026-05-16T22:44:45.000Z</time></trkpt>
        <trkpt lat="29.4998966" lon="104.1079603"><ele>408.68</ele><time>2026-05-16T22:44:53.000Z</time></trkpt>
        <trkpt lat="29.4999834" lon="104.1080074"><ele>409.07</ele><time>2026-05-16T22:45:01.000Z</time></trkpt>
        <trkpt lat="29.5000847" lon="104.1079904"><ele>410.58</ele><time>2026-05-16T22:45:07.000Z</time></trkpt>
        <trkpt lat="29.5001703" lon="104.1079268"><ele>412.22</ele><time>2026-05-16T22:45:13.000Z</time></trkpt>
        <trkpt lat="29.5002558" lon="104.1078434"><ele>413.35</ele><time>2026-05-16T22:45:21.000Z</time></trkpt>
        <trkpt lat="29.5003351" lon="104.107874"><ele>414.99</ele><time>2026-05-16T22:45:31.000Z</time></trkpt>
        <trkpt lat="29.500373" lon="104.1079346"><ele>415.6</ele><time>2026-05-16T22:45:41.000Z</time></trkpt>
        <trkpt lat="29.500449" lon="104.1079471"><ele>413.74</ele><time>2026-05-16T22:45:51.000Z</time></trkpt>
        <trkpt lat="29.5005374" lon="104.1079167"><ele>412.82</ele><time>2026-05-16T22:46:03.000Z</time></trkpt>
        <trkpt lat="29.5006336" lon="104.1079187"><ele>416.91</ele><time>2026-05-16T22:46:27.000Z</time></trkpt>
        <trkpt lat="29.5007291" lon="104.1078878"><ele>427.16</ele><time>2026-05-16T22:46:35.000Z</time></trkpt>
        <trkpt lat="29.5008298" lon="104.1078436"><ele>431.83</ele><time>2026-05-16T22:46:43.000Z</time></trkpt>
        <trkpt lat="29.5008456" lon="104.1078074"><ele>431.87</ele><time>2026-05-16T22:46:47.000Z</time></trkpt>
        <trkpt lat="29.5009094" lon="104.1077937"><ele>431.91</ele><time>2026-05-16T22:48:17.000Z</time></trkpt>
        <trkpt lat="29.501012" lon="104.107739"><ele>428.59</ele><time>2026-05-16T22:48:25.000Z</time></trkpt>
        <trkpt lat="29.5011155" lon="104.1077026"><ele>424.85</ele><time>2026-05-16T22:48:37.000Z</time></trkpt>
        <trkpt lat="29.5012097" lon="104.1076864"><ele>422.36</ele><time>2026-05-16T22:48:45.000Z</time></trkpt>
        <trkpt lat="29.5013024" lon="104.1076875"><ele>420.67</ele><time>2026-05-16T22:48:53.000Z</time></trkpt>
        <trkpt lat="29.5013955" lon="104.1076976"><ele>420</ele><time>2026-05-16T22:49:03.000Z</time></trkpt>
        <trkpt lat="29.5014882" lon="104.1077243"><ele>420.1</ele><time>2026-05-16T22:49:13.000Z</time></trkpt>
        <trkpt lat="29.5015869" lon="104.1077569"><ele>421.17</ele><time>2026-05-16T22:49:23.000Z</time></trkpt>
        <trkpt lat="29.5016918" lon="104.107791"><ele>422.25</ele><time>2026-05-16T22:49:33.000Z</time></trkpt>
        <trkpt lat="29.501789" lon="104.1078064"><ele>422.53</ele><time>2026-05-16T22:49:41.000Z</time></trkpt>
        <trkpt lat="29.5018785" lon="104.1078326"><ele>421.96</ele><time>2026-05-16T22:49:49.000Z</time></trkpt>
        <trkpt lat="29.501975" lon="104.107828"><ele>421.32</ele><time>2026-05-16T22:49:57.000Z</time></trkpt>
        <trkpt lat="29.5020773" lon="104.1078017"><ele>419.77</ele><time>2026-05-16T22:50:05.000Z</time></trkpt>
        <trkpt lat="29.5021706" lon="104.1077651"><ele>417.3</ele><time>2026-05-16T22:50:13.000Z</time></trkpt>
        <trkpt lat="29.5022268" lon="104.1077264"><ele>414.46</ele><time>2026-05-16T22:50:19.000Z</time></trkpt>
        <trkpt lat="29.5023" lon="104.1076818"><ele>411.67</ele><time>2026-05-16T22:50:23.000Z</time></trkpt>
        <trkpt lat="29.5023879" lon="104.1076625"><ele>410.74</ele><time>2026-05-16T22:50:33.000Z</time></trkpt>
        <trkpt lat="29.5024968" lon="104.107648"><ele>411.11</ele><time>2026-05-16T22:50:59.000Z</time></trkpt>
        <trkpt lat="29.5026065" lon="104.1076312"><ele>410.31</ele><time>2026-05-16T22:51:07.000Z</time></trkpt>
        <trkpt lat="29.5027082" lon="104.1076321"><ele>411.36</ele><time>2026-05-16T22:51:17.000Z</time></trkpt>
        <trkpt lat="29.5028134" lon="104.1076486"><ele>415.05</ele><time>2026-05-16T22:51:27.000Z</time></trkpt>
        <trkpt lat="29.5029149" lon="104.1076637"><ele>418.56</ele><time>2026-05-16T22:51:37.000Z</time></trkpt>
        <trkpt lat="29.503023" lon="104.1076787"><ele>422.01</ele><time>2026-05-16T22:51:47.000Z</time></trkpt>
        <trkpt lat="29.5031311" lon="104.1076712"><ele>423.19</ele><time>2026-05-16T22:51:55.000Z</time></trkpt>
        <trkpt lat="29.5032245" lon="104.1076909"><ele>422.78</ele><time>2026-05-16T22:52:03.000Z</time></trkpt>
        <trkpt lat="29.5033122" lon="104.107727"><ele>421.8</ele><time>2026-05-16T22:52:11.000Z</time></trkpt>
        <trkpt lat="29.5033995" lon="104.1077682"><ele>419.68</ele><time>2026-05-16T22:52:19.000Z</time></trkpt>
        <trkpt lat="29.5034927" lon="104.1077756"><ele>417.72</ele><time>2026-05-16T22:52:27.000Z</time></trkpt>
        <trkpt lat="29.5035105" lon="104.1077828"><ele>415.84</ele><time>2026-05-16T22:52:31.000Z</time></trkpt>
        <trkpt lat="29.5035731" lon="104.1077684"><ele>414.02</ele><time>2026-05-16T22:52:43.000Z</time></trkpt>
        <trkpt lat="29.5036634" lon="104.1077638"><ele>410.87</ele><time>2026-05-16T22:52:49.000Z</time></trkpt>
        <trkpt lat="29.503758" lon="104.1077939"><ele>408.33</ele><time>2026-05-16T22:52:57.000Z</time></trkpt>
        <trkpt lat="29.5038505" lon="104.1078527"><ele>406.49</ele><time>2026-05-16T22:53:05.000Z</time></trkpt>
        <trkpt lat="29.5039401" lon="104.1079309"><ele>406.37</ele><time>2026-05-16T22:53:15.000Z</time></trkpt>
        <trkpt lat="29.5040156" lon="104.1080061"><ele>406.02</ele><time>2026-05-16T22:53:23.000Z</time></trkpt>
        <trkpt lat="29.5040913" lon="104.1080858"><ele>407.37</ele><time>2026-05-16T22:53:31.000Z</time></trkpt>
        <trkpt lat="29.5041657" lon="104.1081643"><ele>408.26</ele><time>2026-05-16T22:53:39.000Z</time></trkpt>
        <trkpt lat="29.5042417" lon="104.1082408"><ele>408.78</ele><time>2026-05-16T22:53:47.000Z</time></trkpt>
        <trkpt lat="29.5043058" lon="104.1083202"><ele>409.25</ele><time>2026-05-16T22:53:55.000Z</time></trkpt>
        <trkpt lat="29.5043578" lon="104.1083652"><ele>410</ele><time>2026-05-16T22:54:11.000Z</time></trkpt>
        <trkpt lat="29.5043886" lon="104.1084599"><ele>410.95</ele><time>2026-05-16T22:54:35.000Z</time></trkpt>
        <trkpt lat="29.5043763" lon="104.108574"><ele>411.74</ele><time>2026-05-16T22:54:43.000Z</time></trkpt>
        <trkpt lat="29.5043643" lon="104.1086878"><ele>413.52</ele><time>2026-05-16T22:54:51.000Z</time></trkpt>
        <trkpt lat="29.5043517" lon="104.1088025"><ele>415.86</ele><time>2026-05-16T22:54:59.000Z</time></trkpt>
        <trkpt lat="29.5043244" lon="104.1089103"><ele>416.79</ele><time>2026-05-16T22:55:07.000Z</time></trkpt>
        <trkpt lat="29.5042911" lon="104.109025"><ele>418.08</ele><time>2026-05-16T22:55:17.000Z</time></trkpt>
        <trkpt lat="29.50427" lon="104.1091355"><ele>419.4</ele><time>2026-05-16T22:55:25.000Z</time></trkpt>
        <trkpt lat="29.5042581" lon="104.1092458"><ele>420.17</ele><time>2026-05-16T22:55:33.000Z</time></trkpt>
        <trkpt lat="29.5042773" lon="104.1093528"><ele>420.88</ele><time>2026-05-16T22:55:41.000Z</time></trkpt>
        <trkpt lat="29.5043524" lon="104.1094268"><ele>420.87</ele><time>2026-05-16T22:55:49.000Z</time></trkpt>
        <trkpt lat="29.5044572" lon="104.1094458"><ele>421.12</ele><time>2026-05-16T22:55:57.000Z</time></trkpt>
        <trkpt lat="29.5045635" lon="104.1094425"><ele>420.83</ele><time>2026-05-16T22:56:05.000Z</time></trkpt>
        <trkpt lat="29.5046673" lon="104.1094332"><ele>420.15</ele><time>2026-05-16T22:56:13.000Z</time></trkpt>
        <trkpt lat="29.5047691" lon="104.1094315"><ele>418.9</ele><time>2026-05-16T22:56:25.000Z</time></trkpt>
        <trkpt lat="29.504868" lon="104.1094197"><ele>418.48</ele><time>2026-05-16T22:56:33.000Z</time></trkpt>
        <trkpt lat="29.5049655" lon="104.1094213"><ele>417.77</ele><time>2026-05-16T22:56:41.000Z</time></trkpt>
        <trkpt lat="29.5050648" lon="104.109423"><ele>416.97</ele><time>2026-05-16T22:56:49.000Z</time></trkpt>
        <trkpt lat="29.5051604" lon="104.109445"><ele>416.95</ele><time>2026-05-16T22:56:57.000Z</time></trkpt>
        <trkpt lat="29.5052548" lon="104.1094716"><ele>416.34</ele><time>2026-05-16T22:57:05.000Z</time></trkpt>
        <trkpt lat="29.5053583" lon="104.1095013"><ele>415.2</ele><time>2026-05-16T22:57:13.000Z</time></trkpt>
        <trkpt lat="29.5054583" lon="104.1095284"><ele>412.55</ele><time>2026-05-16T22:57:21.000Z</time></trkpt>
        <trkpt lat="29.5055622" lon="104.1095455"><ele>410.68</ele><time>2026-05-16T22:57:29.000Z</time></trkpt>
        <trkpt lat="29.5056654" lon="104.1095671"><ele>411.02</ele><time>2026-05-16T22:57:37.000Z</time></trkpt>
        <trkpt lat="29.5057672" lon="104.1095939"><ele>411.26</ele><time>2026-05-16T22:57:45.000Z</time></trkpt>
        <trkpt lat="29.5058662" lon="104.1096188"><ele>411.79</ele><time>2026-05-16T22:57:53.000Z</time></trkpt>
        <trkpt lat="29.5059627" lon="104.1096512"><ele>411.51</ele><time>2026-05-16T22:58:01.000Z</time></trkpt>
        <trkpt lat="29.5059302" lon="104.1096668"><ele>411.07</ele><time>2026-05-16T22:58:05.000Z</time></trkpt>
        <trkpt lat="29.5059814" lon="104.109701"><ele>411.25</ele><time>2026-05-16T22:58:25.000Z</time></trkpt>
        <trkpt lat="29.5060647" lon="104.1097604"><ele>410.42</ele><time>2026-05-16T22:58:35.000Z</time></trkpt>
        <trkpt lat="29.5061467" lon="104.1098486"><ele>410.2</ele><time>2026-05-16T22:58:43.000Z</time></trkpt>
        <trkpt lat="29.5062298" lon="104.1099434"><ele>410.95</ele><time>2026-05-16T22:58:53.000Z</time></trkpt>
        <trkpt lat="29.5063092" lon="104.1100249"><ele>411.69</ele><time>2026-05-16T22:59:01.000Z</time></trkpt>
        <trkpt lat="29.5064016" lon="104.1100741"><ele>412.26</ele><time>2026-05-16T22:59:09.000Z</time></trkpt>
        <trkpt lat="29.5065072" lon="104.1100794"><ele>413.17</ele><time>2026-05-16T22:59:17.000Z</time></trkpt>
        <trkpt lat="29.5066118" lon="104.1100641"><ele>413.66</ele><time>2026-05-16T22:59:25.000Z</time></trkpt>
        <trkpt lat="29.5067144" lon="104.1100354"><ele>413.88</ele><time>2026-05-16T22:59:33.000Z</time></trkpt>
        <trkpt lat="29.5068037" lon="104.1099864"><ele>413.07</ele><time>2026-05-16T22:59:41.000Z</time></trkpt>
        <trkpt lat="29.5068958" lon="104.1099431"><ele>411.69</ele><time>2026-05-16T22:59:49.000Z</time></trkpt>
        <trkpt lat="29.5069937" lon="104.1099013"><ele>410.5</ele><time>2026-05-16T22:59:57.000Z</time></trkpt>
        <trkpt lat="29.5070869" lon="104.1098773"><ele>410.03</ele><time>2026-05-16T23:00:05.000Z</time></trkpt>
        <trkpt lat="29.5071846" lon="104.1098686"><ele>409.49</ele><time>2026-05-16T23:00:13.000Z</time></trkpt>
        <trkpt lat="29.507284" lon="104.1098905"><ele>408.92</ele><time>2026-05-16T23:00:21.000Z</time></trkpt>
        <trkpt lat="29.5073706" lon="104.109939"><ele>409.02</ele><time>2026-05-16T23:00:29.000Z</time></trkpt>
        <trkpt lat="29.5074396" lon="104.1100122"><ele>408.95</ele><time>2026-05-16T23:00:37.000Z</time></trkpt>
        <trkpt lat="29.5075012" lon="104.1101034"><ele>409.3</ele><time>2026-05-16T23:00:45.000Z</time></trkpt>
        <trkpt lat="29.5075578" lon="104.1102133"><ele>410</ele><time>2026-05-16T23:00:53.000Z</time></trkpt>
        <trkpt lat="29.5076061" lon="104.1103292"><ele>410.03</ele><time>2026-05-16T23:01:01.000Z</time></trkpt>
        <trkpt lat="29.5076364" lon="104.1104406"><ele>409.6</ele><time>2026-05-16T23:01:09.000Z</time></trkpt>
        <trkpt lat="29.5076708" lon="104.1105493"><ele>409.96</ele><time>2026-05-16T23:01:17.000Z</time></trkpt>
        <trkpt lat="29.5077141" lon="104.11065"><ele>410.46</ele><time>2026-05-16T23:01:25.000Z</time></trkpt>
        <trkpt lat="29.5077645" lon="104.1107501"><ele>410.7</ele><time>2026-05-16T23:01:33.000Z</time></trkpt>
        <trkpt lat="29.5078306" lon="104.1108413"><ele>410.12</ele><time>2026-05-16T23:01:41.000Z</time></trkpt>
        <trkpt lat="29.5079021" lon="104.110921"><ele>409.69</ele><time>2026-05-16T23:01:49.000Z</time></trkpt>
        <trkpt lat="29.5079833" lon="104.1109871"><ele>409.67</ele><time>2026-05-16T23:01:57.000Z</time></trkpt>
        <trkpt lat="29.5080645" lon="104.1110487"><ele>408.06</ele><time>2026-05-16T23:02:05.000Z</time></trkpt>
        <trkpt lat="29.5081367" lon="104.1111202"><ele>406.55</ele><time>2026-05-16T23:02:13.000Z</time></trkpt>
        <trkpt lat="29.508235" lon="104.1111414"><ele>404.77</ele><time>2026-05-16T23:02:21.000Z</time></trkpt>
        <trkpt lat="29.5083359" lon="104.111117"><ele>404.22</ele><time>2026-05-16T23:02:29.000Z</time></trkpt>
        <trkpt lat="29.508439" lon="104.1110853"><ele>404.4</ele><time>2026-05-16T23:02:37.000Z</time></trkpt>
        <trkpt lat="29.5084711" lon="104.1110878"><ele>404.21</ele><time>2026-05-16T23:02:41.000Z</time></trkpt>
        <trkpt lat="29.5085339" lon="104.1110575"><ele>404.96</ele><time>2026-05-16T23:03:23.000Z</time></trkpt>
        <trkpt lat="29.5086156" lon="104.1110089"><ele>404.15</ele><time>2026-05-16T23:03:31.000Z</time></trkpt>
        <trkpt lat="29.5086986" lon="104.1109441"><ele>402.4</ele><time>2026-05-16T23:03:39.000Z</time></trkpt>
        <trkpt lat="29.5087882" lon="104.1109143"><ele>399.62</ele><time>2026-05-16T23:03:47.000Z</time></trkpt>
        <trkpt lat="29.5088911" lon="104.1108792"><ele>397.96</ele><time>2026-05-16T23:03:55.000Z</time></trkpt>
        <trkpt lat="29.50899" lon="104.1108535"><ele>397.72</ele><time>2026-05-16T23:04:03.000Z</time></trkpt>
        <trkpt lat="29.5090924" lon="104.1108378"><ele>398</ele><time>2026-05-16T23:04:11.000Z</time></trkpt>
        <trkpt lat="29.5091937" lon="104.110802"><ele>397.77</ele><time>2026-05-16T23:04:19.000Z</time></trkpt>
        <trkpt lat="29.5092849" lon="104.1107586"><ele>397.86</ele><time>2026-05-16T23:04:27.000Z</time></trkpt>
        <trkpt lat="29.5093725" lon="104.1107126"><ele>397.03</ele><time>2026-05-16T23:04:35.000Z</time></trkpt>
        <trkpt lat="29.50941" lon="104.1106806"><ele>395.09</ele><time>2026-05-16T23:04:41.000Z</time></trkpt>
        <trkpt lat="29.5094952" lon="104.1106568"><ele>393.96</ele><time>2026-05-16T23:05:41.000Z</time></trkpt>
        <trkpt lat="29.5095906" lon="104.1106207"><ele>391.35</ele><time>2026-05-16T23:05:49.000Z</time></trkpt>
        <trkpt lat="29.5096805" lon="104.1105762"><ele>389.19</ele><time>2026-05-16T23:05:57.000Z</time></trkpt>
        <trkpt lat="29.5097656" lon="104.1105076"><ele>388.2</ele><time>2026-05-16T23:06:05.000Z</time></trkpt>
        <trkpt lat="29.509766" lon="104.1104841"><ele>387.6</ele><time>2026-05-16T23:06:07.000Z</time></trkpt>
        <trkpt lat="29.5098389" lon="104.1104735"><ele>387.05</ele><time>2026-05-16T23:06:19.000Z</time></trkpt>
        <trkpt lat="29.5099345" lon="104.1104499"><ele>386.39</ele><time>2026-05-16T23:06:29.000Z</time></trkpt>
        <trkpt lat="29.5099651" lon="104.1104769"><ele>388.13</ele><time>2026-05-16T23:06:39.000Z</time></trkpt>
        <trkpt lat="29.5100328" lon="104.1105385"><ele>391.14</ele><time>2026-05-16T23:07:04.000Z</time></trkpt>
        <trkpt lat="29.5100905" lon="104.1106345"><ele>392.75</ele><time>2026-05-16T23:07:14.000Z</time></trkpt>
        <trkpt lat="29.5101509" lon="104.1107343"><ele>393.99</ele><time>2026-05-16T23:07:24.000Z</time></trkpt>
        <trkpt lat="29.5102264" lon="104.1108234"><ele>396.12</ele><time>2026-05-16T23:07:34.000Z</time></trkpt>
        <trkpt lat="29.5102818" lon="104.1109135"><ele>397.72</ele><time>2026-05-16T23:07:42.000Z</time></trkpt>
        <trkpt lat="29.5103477" lon="104.1110014"><ele>398.66</ele><time>2026-05-16T23:07:50.000Z</time></trkpt>
        <trkpt lat="29.5104088" lon="104.1111031"><ele>399.24</ele><time>2026-05-16T23:07:58.000Z</time></trkpt>
        <trkpt lat="29.5104749" lon="104.1111947"><ele>400.17</ele><time>2026-05-16T23:08:06.000Z</time></trkpt>
        <trkpt lat="29.5105411" lon="104.1112854"><ele>400.52</ele><time>2026-05-16T23:08:14.000Z</time></trkpt>
        <trkpt lat="29.5105817" lon="104.1113167"><ele>400.54</ele><time>2026-05-16T23:08:18.000Z</time></trkpt>
        <trkpt lat="29.5106354" lon="104.1113915"><ele>399.35</ele><time>2026-05-16T23:08:32.000Z</time></trkpt>
        <trkpt lat="29.5107088" lon="104.111488"><ele>399.74</ele><time>2026-05-16T23:08:40.000Z</time></trkpt>
        <trkpt lat="29.5107857" lon="104.1115801"><ele>400.72</ele><time>2026-05-16T23:08:48.000Z</time></trkpt>
        <trkpt lat="29.5108654" lon="104.1116606"><ele>402.13</ele><time>2026-05-16T23:08:56.000Z</time></trkpt>
        <trkpt lat="29.5109475" lon="104.1117245"><ele>403.45</ele><time>2026-05-16T23:09:04.000Z</time></trkpt>
        <trkpt lat="29.511032" lon="104.1118004"><ele>403.69</ele><time>2026-05-16T23:09:12.000Z</time></trkpt>
        <trkpt lat="29.5111175" lon="104.1118725"><ele>404.05</ele><time>2026-05-16T23:09:20.000Z</time></trkpt>
        <trkpt lat="29.5112041" lon="104.1119366"><ele>404.46</ele><time>2026-05-16T23:09:28.000Z</time></trkpt>
        <trkpt lat="29.5112906" lon="104.1119909"><ele>404.6</ele><time>2026-05-16T23:09:36.000Z</time></trkpt>
        <trkpt lat="29.5113651" lon="104.1120529"><ele>404.36</ele><time>2026-05-16T23:09:44.000Z</time></trkpt>
        <trkpt lat="29.5114054" lon="104.1121501"><ele>403.8</ele><time>2026-05-16T23:09:54.000Z</time></trkpt>
        <trkpt lat="29.5114069" lon="104.112258"><ele>402.42</ele><time>2026-05-16T23:10:02.000Z</time></trkpt>
        <trkpt lat="29.511417" lon="104.1123686"><ele>401.64</ele><time>2026-05-16T23:10:10.000Z</time></trkpt>
        <trkpt lat="29.5114697" lon="104.1123275"><ele>401.26</ele><time>2026-05-16T23:10:20.000Z</time></trkpt>
        <trkpt lat="29.5115632" lon="104.1122605"><ele>399.28</ele><time>2026-05-16T23:10:30.000Z</time></trkpt>
        <trkpt lat="29.5116625" lon="104.1122256"><ele>396.77</ele><time>2026-05-16T23:10:40.000Z</time></trkpt>
        <trkpt lat="29.511738" lon="104.1122873"><ele>395.44</ele><time>2026-05-16T23:10:50.000Z</time></trkpt>
        <trkpt lat="29.511766" lon="104.1123088"><ele>394.89</ele><time>2026-05-16T23:10:52.000Z</time></trkpt>
        <trkpt lat="29.5118354" lon="104.1123112"><ele>394.32</ele><time>2026-05-16T23:11:42.000Z</time></trkpt>
        <trkpt lat="29.511905" lon="104.1122419"><ele>392.7</ele><time>2026-05-16T23:11:52.000Z</time></trkpt>
        <trkpt lat="29.5119169" lon="104.1121221"><ele>392.22</ele><time>2026-05-16T23:12:04.000Z</time></trkpt>
        <trkpt lat="29.5119891" lon="104.1119288"><ele>393.39</ele><time>2026-05-16T23:12:30.000Z</time></trkpt>
        <trkpt lat="29.5122142" lon="104.1114715"><ele>389.83</ele><time>2026-05-16T23:13:25.000Z</time></trkpt>
        <trkpt lat="29.5123663" lon="104.1113029"><ele>385.24</ele><time>2026-05-16T23:13:34.000Z</time></trkpt>
        <trkpt lat="29.512443" lon="104.1112033"><ele>387.11</ele><time>2026-05-16T23:13:42.000Z</time></trkpt>
        <trkpt lat="29.5124402" lon="104.1111106"><ele>388.25</ele><time>2026-05-16T23:13:50.000Z</time></trkpt>
        <trkpt lat="29.5124286" lon="104.1110056"><ele>389.47</ele><time>2026-05-16T23:13:58.000Z</time></trkpt>
        <trkpt lat="29.5124281" lon="104.1108952"><ele>390.24</ele><time>2026-05-16T23:14:06.000Z</time></trkpt>
        <trkpt lat="29.512442" lon="104.110788"><ele>390.06</ele><time>2026-05-16T23:14:14.000Z</time></trkpt>
        <trkpt lat="29.5124779" lon="104.1106895"><ele>389.28</ele><time>2026-05-16T23:14:22.000Z</time></trkpt>
        <trkpt lat="29.5125206" lon="104.1105876"><ele>388.41</ele><time>2026-05-16T23:14:30.000Z</time></trkpt>
        <trkpt lat="29.5125456" lon="104.110475"><ele>388.03</ele><time>2026-05-16T23:14:38.000Z</time></trkpt>
        <trkpt lat="29.5125734" lon="104.1103695"><ele>388.41</ele><time>2026-05-16T23:14:46.000Z</time></trkpt>
        <trkpt lat="29.512622" lon="104.1102607"><ele>389.35</ele><time>2026-05-16T23:14:56.000Z</time></trkpt>
        <trkpt lat="29.5126546" lon="104.1102085"><ele>391.2</ele><time>2026-05-16T23:15:02.000Z</time></trkpt>
        <trkpt lat="29.5126546" lon="104.1102085"><ele>391.2</ele><time>2026-05-16T23:15:11.000Z</time></trkpt>
      </trkseg>
  </trk>
</gpx>